DLH6DE KJFK-EDDM
Flight info
| Callsign | DLH6DE |
|---|---|
| Flight time | N/A |
| Altitude | 37000 |
| Route | MERIT DCT HFD DCT PUT DCT WITCH DCT ALLEX N535B UMESI/M085F370 DCT 5130N05000W 5330N04000W 5430N03000W 5430N02000W DCT NEBIN DCT OLGON/N0490F370 DCT MORAG DCT EMJEE DCT KONAN UL607 KOK DCT REMBA DCT SPI DCT MOVUM T109 HAREM T104 ROKIL ROKIL1A |
| Aircraft | A359/H-SDE2E3GHIJ3J4J5LM1ORWXY/LB1D1 |
Departure
| Time | 2026-05-09 13:19 |
|---|---|
| Airport | John F. Kennedy International Airport (KJFK) |
Arrival
| Time | N/A |
|---|---|
| Airport | Munich Airport (EDDM) |
| Time | Latitude | Longitude | Altitude | Speed | Heading |
|---|---|---|---|---|---|
| 2026-05-09 12:46 | 40.64747 | -73.77638 | 29 ft | 0 kts | 230° |
| 2026-05-09 12:46 | 40.64749 | -73.77634 | 28 ft | 0 kts | 230° |
| 2026-05-09 13:08 | 40.64749 | -73.77635 | 29 ft | 1 kts | 230° |
| 2026-05-09 13:08 | 40.64758 | -73.77622 | 27 ft | 4 kts | 198° |
| 2026-05-09 13:08 | 40.64778 | -73.77615 | 25 ft | 4 kts | 229° |
| 2026-05-09 13:09 | 40.64778 | -73.77596 | 27 ft | 3 kts | 301° |
| 2026-05-09 13:09 | 40.64764 | -73.77567 | 26 ft | 3 kts | 301° |
| 2026-05-09 13:09 | 40.64762 | -73.77561 | 26 ft | 0 kts | 301° |
| 2026-05-09 13:14 | 40.64770 | -73.77579 | 27 ft | 9 kts | 301° |
| 2026-05-09 13:14 | 40.64815 | -73.77608 | 28 ft | 8 kts | 5° |
| 2026-05-09 13:16 | 40.65006 | -73.77037 | 27 ft | 16 kts | 122° |
| 2026-05-09 13:16 | 40.64946 | -73.76910 | 27 ft | 17 kts | 121° |
| 2026-05-09 13:16 | 40.64887 | -73.76779 | 28 ft | 14 kts | 120° |
| 2026-05-09 13:16 | 40.64904 | -73.76680 | 28 ft | 12 kts | 38° |
| 2026-05-09 13:17 | 40.64981 | -73.76618 | 27 ft | 14 kts | 31° |
| 2026-05-09 13:17 | 40.65065 | -73.76551 | 27 ft | 13 kts | 32° |
| 2026-05-09 13:17 | 40.65095 | -73.76461 | 28 ft | 8 kts | 112° |
| 2026-05-09 13:17 | 40.65090 | -73.76451 | 27 ft | 0 kts | 121° |
| 2026-05-09 13:18 | 40.65077 | -73.76422 | 29 ft | 11 kts | 121° |
| 2026-05-09 13:18 | 40.64999 | -73.76369 | 29 ft | 14 kts | 201° |
| 2026-05-09 13:18 | 40.64908 | -73.76440 | 28 ft | 20 kts | 211° |
| 2026-05-09 13:19 | 40.64697 | -73.76609 | 27 ft | 61 kts | 211° |
| 2026-05-09 13:19 | 40.64155 | -73.77029 | 28 ft | 117 kts | 211° |
| 2026-05-09 13:19 | 40.63309 | -73.77693 | 36 ft | 164 kts | 210° |
| 2026-05-09 13:19 | 40.62331 | -73.78452 | 663 ft | 158 kts | 208° |
| 2026-05-09 13:20 | 40.61410 | -73.79164 | 1416 ft | 151 kts | 212° |
| 2026-05-09 13:20 | 40.60503 | -73.79878 | 2026 ft | 153 kts | 213° |
| 2026-05-09 13:20 | 40.59583 | -73.80627 | 2549 ft | 159 kts | 215° |
| 2026-05-09 13:20 | 40.58590 | -73.81436 | 2877 ft | 177 kts | 214° |
| 2026-05-09 13:21 | 40.57496 | -73.82298 | 3201 ft | 193 kts | 213° |
| 2026-05-09 13:21 | 40.56185 | -73.82953 | 3460 ft | 217 kts | 189° |
| 2026-05-09 13:21 | 40.54630 | -73.82476 | 3761 ft | 249 kts | 156° |
| 2026-05-09 13:21 | 40.53335 | -73.80808 | 4172 ft | 276 kts | 127° |
| 2026-05-09 13:22 | 40.52700 | -73.78334 | 4677 ft | 299 kts | 100° |
| 2026-05-09 13:22 | 40.52915 | -73.75558 | 5221 ft | 314 kts | 74° |
| 2026-05-09 13:22 | 40.53952 | -73.73053 | 6125 ft | 312 kts | 55° |
| 2026-05-09 13:23 | 40.58830 | -73.63692 | 9349 ft | 314 kts | 57° |
| 2026-05-09 13:23 | 40.60210 | -73.61436 | 10039 ft | 319 kts | 43° |
| 2026-05-09 13:24 | 40.62016 | -73.59649 | 10426 ft | 334 kts | 30° |
| 2026-05-09 13:24 | 40.64094 | -73.58116 | 10735 ft | 351 kts | 24° |
| 2026-05-09 13:24 | 40.65577 | -73.57186 | 10937 ft | 361 kts | 21° |
| 2026-05-09 13:24 | 40.67933 | -73.55830 | 11236 ft | 377 kts | 20° |
| 2026-05-09 13:25 | 40.71227 | -73.54001 | 11637 ft | 397 kts | 20° |
| 2026-05-09 13:25 | 40.73797 | -73.52552 | 12094 ft | 405 kts | 20° |
| 2026-05-09 13:25 | 40.78160 | -73.50014 | 13121 ft | 412 kts | 21° |
| 2026-05-09 13:26 | 40.80786 | -73.48453 | 13784 ft | 415 kts | 20° |
| 2026-05-09 13:26 | 40.83429 | -73.46870 | 14333 ft | 418 kts | 20° |
| 2026-05-09 13:26 | 40.86092 | -73.45270 | 14865 ft | 422 kts | 20° |
| 2026-05-09 13:26 | 40.88737 | -73.43680 | 15380 ft | 426 kts | 20° |
| 2026-05-09 13:27 | 40.91477 | -73.42032 | 15916 ft | 430 kts | 19° |
| 2026-05-09 13:27 | 40.94216 | -73.40385 | 16453 ft | 433 kts | 19° |
| 2026-05-09 13:27 | 40.96971 | -73.38728 | 17001 ft | 436 kts | 19° |
| 2026-05-09 13:27 | 40.99703 | -73.37084 | 17551 ft | 439 kts | 19° |
| 2026-05-09 13:28 | 41.02492 | -73.35405 | 18108 ft | 443 kts | 19° |
| 2026-05-09 13:28 | 41.05313 | -73.33705 | 18566 ft | 447 kts | 19° |
| 2026-05-09 13:28 | 41.08148 | -73.31995 | 19034 ft | 450 kts | 19° |
| 2026-05-09 13:28 | 41.11016 | -73.30264 | 19519 ft | 454 kts | 19° |
| 2026-05-09 13:29 | 41.13900 | -73.28518 | 20052 ft | 456 kts | 18° |
| 2026-05-09 13:29 | 41.16799 | -73.26762 | 20583 ft | 459 kts | 18° |
| 2026-05-09 13:29 | 41.19725 | -73.24992 | 21064 ft | 464 kts | 18° |
| 2026-05-09 13:29 | 41.22673 | -73.23207 | 21526 ft | 468 kts | 18° |
| 2026-05-09 13:30 | 41.25643 | -73.21404 | 22027 ft | 471 kts | 18° |
| 2026-05-09 13:30 | 41.28637 | -73.19586 | 22509 ft | 475 kts | 18° |
| 2026-05-09 13:30 | 41.31650 | -73.17753 | 22996 ft | 478 kts | 18° |
| 2026-05-09 13:30 | 41.34613 | -73.15638 | 23459 ft | 491 kts | 27° |
| 2026-05-09 13:31 | 41.37270 | -73.12705 | 23930 ft | 505 kts | 42° |
| 2026-05-09 13:31 | 41.39355 | -73.08897 | 24389 ft | 514 kts | 57° |
| 2026-05-09 13:31 | 41.41025 | -73.04654 | 24823 ft | 519 kts | 60° |
| 2026-05-09 13:31 | 41.42690 | -73.00375 | 25241 ft | 521 kts | 58° |
| 2026-05-09 13:32 | 41.44530 | -72.96213 | 25653 ft | 522 kts | 53° |
| 2026-05-09 13:32 | 41.48743 | -72.88320 | 26485 ft | 523 kts | 47° |
| 2026-05-09 13:32 | 41.51016 | -72.84514 | 26932 ft | 525 kts | 45° |
| 2026-05-09 13:33 | 41.53335 | -72.80744 | 27354 ft | 526 kts | 45° |
| 2026-05-09 13:33 | 41.55675 | -72.76972 | 27772 ft | 529 kts | 45° |
| 2026-05-09 13:33 | 41.57996 | -72.73224 | 28171 ft | 531 kts | 45° |
| 2026-05-09 13:33 | 41.60379 | -72.69352 | 28578 ft | 534 kts | 45° |
| 2026-05-09 13:34 | 41.62702 | -72.65553 | 28938 ft | 536 kts | 45° |
| 2026-05-09 13:34 | 41.65058 | -72.61682 | 29318 ft | 538 kts | 45° |
| 2026-05-09 13:34 | 41.67430 | -72.57770 | 29644 ft | 541 kts | 45° |
| 2026-05-09 13:34 | 41.69763 | -72.53795 | 30004 ft | 546 kts | 47° |
| 2026-05-09 13:35 | 41.72008 | -72.49672 | 30274 ft | 549 kts | 49° |
| 2026-05-09 13:35 | 41.74205 | -72.45490 | 30637 ft | 549 kts | 50° |
| 2026-05-09 13:35 | 41.76383 | -72.41301 | 31084 ft | 547 kts | 50° |
| 2026-05-09 13:35 | 41.78559 | -72.37131 | 31489 ft | 545 kts | 49° |
| 2026-05-09 13:36 | 41.80739 | -72.32986 | 31864 ft | 544 kts | 49° |
| 2026-05-09 13:36 | 41.82928 | -72.28852 | 32242 ft | 542 kts | 49° |
| 2026-05-09 13:36 | 41.85114 | -72.24740 | 32638 ft | 541 kts | 48° |
| 2026-05-09 13:36 | 41.87301 | -72.20636 | 32998 ft | 540 kts | 48° |
| 2026-05-09 13:37 | 41.89485 | -72.16536 | 33370 ft | 538 kts | 48° |
| 2026-05-09 13:37 | 41.91662 | -72.12444 | 33730 ft | 537 kts | 48° |
| 2026-05-09 13:37 | 41.93823 | -72.08375 | 34080 ft | 536 kts | 48° |
| 2026-05-09 13:37 | 41.95987 | -72.04295 | 34305 ft | 536 kts | 48° |
| 2026-05-09 13:38 | 41.98125 | -72.00259 | 34472 ft | 537 kts | 48° |
| 2026-05-09 13:38 | 42.00294 | -71.96160 | 34672 ft | 539 kts | 48° |
| 2026-05-09 13:38 | 42.02472 | -71.92039 | 34812 ft | 541 kts | 48° |
| 2026-05-09 13:38 | 42.04650 | -71.87920 | 35003 ft | 541 kts | 48° |
| 2026-05-09 13:39 | 42.06824 | -71.83794 | 35232 ft | 541 kts | 49° |
| 2026-05-09 13:39 | 42.08999 | -71.79653 | 35385 ft | 542 kts | 49° |
| 2026-05-09 13:39 | 42.11178 | -71.75496 | 35542 ft | 543 kts | 49° |
| 2026-05-09 13:39 | 42.13359 | -71.71331 | 35717 ft | 544 kts | 49° |
| 2026-05-09 13:40 | 42.15537 | -71.67166 | 35903 ft | 545 kts | 49° |
| 2026-05-09 13:40 | 42.17722 | -71.62985 | 36019 ft | 546 kts | 49° |
| 2026-05-09 13:40 | 42.19911 | -71.58791 | 36168 ft | 547 kts | 49° |
| 2026-05-09 13:40 | 42.22101 | -71.54589 | 36309 ft | 547 kts | 49° |
| 2026-05-09 13:41 | 42.24285 | -71.50392 | 36532 ft | 546 kts | 49° |
| 2026-05-09 13:41 | 42.26472 | -71.46185 | 36675 ft | 547 kts | 49° |
| 2026-05-09 13:41 | 42.28659 | -71.41973 | 36783 ft | 548 kts | 49° |
| 2026-05-09 13:41 | 42.30846 | -71.37755 | 36953 ft | 549 kts | 50° |
| 2026-05-09 13:42 | 42.35239 | -71.29269 | 37036 ft | 554 kts | 50° |
| 2026-05-09 13:42 | 42.39671 | -71.20680 | 37055 ft | 557 kts | 50° |
| 2026-05-09 13:43 | 42.44091 | -71.12080 | 37059 ft | 556 kts | 50° |
| 2026-05-09 13:43 | 42.48508 | -71.03465 | 37055 ft | 556 kts | 50° |
| 2026-05-09 13:44 | 42.52885 | -70.94906 | 37054 ft | 556 kts | 50° |
| 2026-05-09 13:44 | 42.57313 | -70.86224 | 37050 ft | 556 kts | 50° |
| 2026-05-09 13:45 | 42.61672 | -70.77658 | 37057 ft | 554 kts | 50° |
| 2026-05-09 13:45 | 42.66048 | -70.69033 | 37050 ft | 554 kts | 50° |
| 2026-05-09 13:46 | 42.70413 | -70.60392 | 37046 ft | 554 kts | 50° |
| 2026-05-09 13:46 | 42.74769 | -70.51747 | 37060 ft | 554 kts | 50° |
| 2026-05-09 13:47 | 42.79114 | -70.43100 | 37035 ft | 553 kts | 50° |
| 2026-05-09 13:47 | 42.83445 | -70.34460 | 37053 ft | 552 kts | 50° |
| 2026-05-09 13:48 | 42.87769 | -70.25810 | 37057 ft | 552 kts | 50° |
| 2026-05-09 13:48 | 42.92090 | -70.17138 | 37045 ft | 552 kts | 50° |
| 2026-05-09 13:49 | 42.96391 | -70.08480 | 37051 ft | 551 kts | 50° |
| 2026-05-09 13:49 | 43.00687 | -69.99809 | 37053 ft | 551 kts | 50° |
| 2026-05-09 13:50 | 43.04980 | -69.91119 | 37059 ft | 551 kts | 50° |
| 2026-05-09 13:50 | 43.09235 | -69.82480 | 37061 ft | 551 kts | 50° |
| 2026-05-09 13:51 | 43.13502 | -69.73791 | 37072 ft | 550 kts | 50° |
| 2026-05-09 13:51 | 43.17771 | -69.65072 | 37065 ft | 550 kts | 51° |
| 2026-05-09 13:52 | 43.22028 | -69.56353 | 37067 ft | 550 kts | 51° |
| 2026-05-09 13:52 | 43.26287 | -69.47604 | 37067 ft | 550 kts | 51° |
| 2026-05-09 13:53 | 43.30503 | -69.38918 | 37072 ft | 550 kts | 51° |
| 2026-05-09 13:53 | 43.34735 | -69.30171 | 37068 ft | 550 kts | 51° |
| 2026-05-09 13:54 | 43.38963 | -69.21408 | 37066 ft | 550 kts | 51° |
| 2026-05-09 13:54 | 43.43182 | -69.12637 | 37072 ft | 550 kts | 51° |
| 2026-05-09 13:55 | 43.47397 | -69.03850 | 37071 ft | 550 kts | 52° |
| 2026-05-09 13:55 | 43.51608 | -68.95044 | 37074 ft | 551 kts | 52° |
| 2026-05-09 13:56 | 43.55818 | -68.86212 | 37074 ft | 551 kts | 52° |
| 2026-05-09 13:56 | 43.60019 | -68.77372 | 37070 ft | 550 kts | 52° |
| 2026-05-09 13:57 | 43.64207 | -68.68532 | 37075 ft | 550 kts | 52° |
| 2026-05-09 13:57 | 43.68387 | -68.59684 | 37080 ft | 550 kts | 52° |
| 2026-05-09 13:58 | 43.72561 | -68.50825 | 37097 ft | 550 kts | 53° |
| 2026-05-09 13:58 | 43.76694 | -68.42022 | 37083 ft | 549 kts | 53° |
| 2026-05-09 13:59 | 43.80848 | -68.33148 | 37083 ft | 549 kts | 53° |
| 2026-05-09 13:59 | 43.84997 | -68.24259 | 37083 ft | 549 kts | 53° |
| 2026-05-09 14:00 | 43.87768 | -68.18307 | 37084 ft | 549 kts | 53° |
| 2026-05-09 14:00 | 43.93266 | -68.06460 | 37088 ft | 548 kts | 53° |
| 2026-05-09 14:01 | 43.97389 | -67.97545 | 37086 ft | 548 kts | 53° |
| 2026-05-09 14:01 | 44.01500 | -67.88631 | 37087 ft | 547 kts | 54° |
| 2026-05-09 14:02 | 44.05599 | -67.79712 | 37086 ft | 547 kts | 54° |
| 2026-05-09 14:02 | 44.09690 | -67.70785 | 37086 ft | 547 kts | 54° |
| 2026-05-09 14:03 | 44.13769 | -67.61858 | 37109 ft | 547 kts | 54° |
| 2026-05-09 14:03 | 44.17810 | -67.52982 | 37084 ft | 545 kts | 54° |
| 2026-05-09 14:04 | 44.21864 | -67.44052 | 37086 ft | 544 kts | 54° |
| 2026-05-09 14:04 | 44.25907 | -67.35120 | 37089 ft | 545 kts | 54° |
| 2026-05-09 14:05 | 44.29948 | -67.26165 | 37088 ft | 543 kts | 55° |
| 2026-05-09 14:05 | 44.33964 | -67.17235 | 37086 ft | 543 kts | 55° |
| 2026-05-09 14:06 | 44.37974 | -67.08294 | 37086 ft | 543 kts | 55° |
| 2026-05-09 14:06 | 44.42065 | -66.99519 | 37095 ft | 540 kts | 49° |
| 2026-05-09 14:07 | 44.46663 | -66.91210 | 37084 ft | 539 kts | 48° |
| 2026-05-09 14:07 | 44.51345 | -66.82982 | 37072 ft | 539 kts | 48° |
| 2026-05-09 14:08 | 44.56022 | -66.74775 | 37090 ft | 539 kts | 48° |
| 2026-05-09 14:08 | 44.60687 | -66.66545 | 37067 ft | 537 kts | 48° |
| 2026-05-09 14:09 | 44.65326 | -66.58320 | 37064 ft | 537 kts | 48° |
| 2026-05-09 14:09 | 44.69931 | -66.50130 | 37077 ft | 537 kts | 48° |
| 2026-05-09 14:10 | 44.76879 | -66.37729 | 37067 ft | 537 kts | 49° |
| 2026-05-09 14:11 | 44.81495 | -66.29460 | 37067 ft | 537 kts | 49° |
| 2026-05-09 14:11 | 44.85329 | -66.22575 | 37097 ft | 537 kts | 49° |
| 2026-05-09 14:12 | 44.89934 | -66.14284 | 37075 ft | 537 kts | 49° |
| 2026-05-09 14:12 | 44.94536 | -66.05972 | 37079 ft | 537 kts | 49° |
| 2026-05-09 14:13 | 44.99123 | -65.97664 | 37081 ft | 537 kts | 49° |
| 2026-05-09 14:15 | 45.17407 | -65.64307 | 37069 ft | 536 kts | 50° |
| 2026-05-09 14:15 | 45.21965 | -65.55928 | 37057 ft | 536 kts | 50° |
| 2026-05-09 14:16 | 45.26523 | -65.47526 | 37063 ft | 536 kts | 50° |
| 2026-05-09 14:16 | 45.31066 | -65.39127 | 37061 ft | 536 kts | 50° |
| 2026-05-09 14:17 | 45.35604 | -65.30713 | 37052 ft | 536 kts | 50° |
| 2026-05-09 14:17 | 45.40140 | -65.22276 | 37052 ft | 536 kts | 50° |
| 2026-05-09 14:18 | 45.44629 | -65.13901 | 37065 ft | 536 kts | 50° |
| 2026-05-09 14:18 | 45.49140 | -65.05462 | 37057 ft | 535 kts | 51° |
| 2026-05-09 14:19 | 45.53639 | -64.97019 | 37047 ft | 534 kts | 51° |
| 2026-05-09 14:19 | 45.58134 | -64.88560 | 37048 ft | 534 kts | 51° |
| 2026-05-09 14:20 | 45.62622 | -64.80089 | 37051 ft | 534 kts | 51° |
| 2026-05-09 14:20 | 45.67097 | -64.71617 | 37053 ft | 534 kts | 51° |
| 2026-05-09 14:21 | 45.73796 | -64.58885 | 37047 ft | 534 kts | 51° |
| 2026-05-09 14:21 | 45.78252 | -64.50384 | 37030 ft | 534 kts | 51° |
| 2026-05-09 14:22 | 45.82699 | -64.41873 | 37020 ft | 533 kts | 51° |
| 2026-05-09 14:22 | 45.87113 | -64.33403 | 37012 ft | 533 kts | 51° |
| 2026-05-09 14:23 | 45.91550 | -64.24862 | 37016 ft | 533 kts | 51° |
| 2026-05-09 14:23 | 45.95978 | -64.16313 | 37013 ft | 533 kts | 52° |
| 2026-05-09 14:24 | 46.00401 | -64.07746 | 37011 ft | 533 kts | 52° |
| 2026-05-09 14:24 | 46.04816 | -63.99170 | 37022 ft | 533 kts | 52° |
| 2026-05-09 14:25 | 46.09229 | -63.90571 | 37018 ft | 533 kts | 52° |
| 2026-05-09 14:25 | 46.13626 | -63.81975 | 37028 ft | 533 kts | 52° |
| 2026-05-09 14:26 | 46.17998 | -63.73405 | 37031 ft | 533 kts | 52° |
| 2026-05-09 14:26 | 46.22386 | -63.64776 | 37034 ft | 533 kts | 52° |
| 2026-05-09 14:27 | 46.26768 | -63.56131 | 37033 ft | 533 kts | 52° |
| 2026-05-09 14:27 | 46.31148 | -63.47465 | 37032 ft | 533 kts | 52° |
| 2026-05-09 14:28 | 46.35517 | -63.38794 | 37040 ft | 533 kts | 53° |
| 2026-05-09 14:28 | 46.39884 | -63.30098 | 37035 ft | 536 kts | 53° |
| 2026-05-09 14:29 | 46.44299 | -63.21282 | 37032 ft | 542 kts | 53° |
| 2026-05-09 14:29 | 46.48702 | -63.12460 | 37033 ft | 545 kts | 53° |
| 2026-05-09 14:30 | 46.53147 | -63.03525 | 37035 ft | 545 kts | 53° |
| 2026-05-09 14:30 | 46.57579 | -62.94588 | 37033 ft | 545 kts | 53° |
| 2026-05-09 14:31 | 46.62006 | -62.85632 | 37037 ft | 545 kts | 53° |
| 2026-05-09 14:31 | 46.66421 | -62.76672 | 37042 ft | 544 kts | 53° |
| 2026-05-09 14:32 | 46.70804 | -62.67748 | 37041 ft | 544 kts | 53° |
| 2026-05-09 14:32 | 46.75206 | -62.58756 | 37041 ft | 544 kts | 53° |
| 2026-05-09 14:33 | 46.79604 | -62.49745 | 37057 ft | 545 kts | 54° |
| 2026-05-09 14:33 | 46.83993 | -62.40723 | 37051 ft | 545 kts | 54° |
| 2026-05-09 14:34 | 46.88375 | -62.31685 | 37049 ft | 545 kts | 54° |
| 2026-05-09 14:34 | 46.92748 | -62.22636 | 37050 ft | 545 kts | 54° |
| 2026-05-09 14:35 | 46.97086 | -62.13631 | 37056 ft | 545 kts | 54° |
| 2026-05-09 14:35 | 47.01446 | -62.04549 | 37051 ft | 545 kts | 54° |
| 2026-05-09 14:36 | 47.05800 | -61.95450 | 37053 ft | 545 kts | 54° |
| 2026-05-09 14:36 | 47.10148 | -61.86336 | 37044 ft | 545 kts | 54° |
| 2026-05-09 14:37 | 47.14488 | -61.77206 | 37030 ft | 545 kts | 55° |
| 2026-05-09 14:37 | 47.18816 | -61.68074 | 37024 ft | 545 kts | 55° |
| 2026-05-09 14:38 | 47.23142 | -61.58914 | 37015 ft | 545 kts | 55° |
| 2026-05-09 14:38 | 47.27460 | -61.49740 | 37023 ft | 545 kts | 55° |
| 2026-05-09 14:39 | 47.31774 | -61.40546 | 37025 ft | 545 kts | 55° |
| 2026-05-09 14:39 | 47.36050 | -61.31399 | 37028 ft | 545 kts | 56° |
| 2026-05-09 14:40 | 47.40347 | -61.22179 | 37035 ft | 545 kts | 56° |
| 2026-05-09 14:40 | 47.44639 | -61.12940 | 37047 ft | 545 kts | 56° |
| 2026-05-09 14:41 | 47.48921 | -61.03688 | 37044 ft | 545 kts | 56° |
| 2026-05-09 14:41 | 47.53201 | -60.94413 | 37051 ft | 545 kts | 56° |
| 2026-05-09 14:42 | 47.57470 | -60.85127 | 37046 ft | 545 kts | 56° |
| 2026-05-09 14:42 | 47.61736 | -60.75818 | 37044 ft | 545 kts | 56° |
| 2026-05-09 14:43 | 47.65988 | -60.66508 | 37040 ft | 545 kts | 56° |
| 2026-05-09 14:43 | 47.70231 | -60.57184 | 37037 ft | 546 kts | 57° |
| 2026-05-09 14:44 | 47.74475 | -60.47828 | 37040 ft | 546 kts | 57° |
| 2026-05-09 14:44 | 47.78712 | -60.38455 | 37035 ft | 546 kts | 57° |
| 2026-05-09 14:45 | 47.82941 | -60.29067 | 37034 ft | 546 kts | 57° |
| 2026-05-09 14:45 | 47.87134 | -60.19727 | 37035 ft | 546 kts | 57° |
| 2026-05-09 14:46 | 47.91344 | -60.10318 | 37034 ft | 546 kts | 57° |
| 2026-05-09 14:46 | 47.95552 | -60.00879 | 37032 ft | 546 kts | 57° |
| 2026-05-09 14:47 | 47.99748 | -59.91436 | 37033 ft | 546 kts | 57° |
| 2026-05-09 14:47 | 48.03932 | -59.81987 | 37031 ft | 545 kts | 57° |
| 2026-05-09 14:48 | 48.08110 | -59.72516 | 37029 ft | 545 kts | 58° |
| 2026-05-09 14:48 | 48.12273 | -59.63048 | 37029 ft | 545 kts | 58° |
| 2026-05-09 14:49 | 48.16438 | -59.53544 | 37027 ft | 545 kts | 58° |
| 2026-05-09 14:49 | 48.20593 | -59.44027 | 37027 ft | 545 kts | 58° |
| 2026-05-09 14:50 | 48.24738 | -59.34501 | 37025 ft | 545 kts | 58° |
| 2026-05-09 14:50 | 48.28877 | -59.24953 | 37023 ft | 545 kts | 59° |
| 2026-05-09 14:51 | 48.32978 | -59.15462 | 37022 ft | 545 kts | 59° |
| 2026-05-09 14:51 | 48.37102 | -59.05882 | 37020 ft | 545 kts | 59° |
| 2026-05-09 14:52 | 48.41218 | -58.96287 | 37020 ft | 545 kts | 59° |
| 2026-05-09 14:52 | 48.45325 | -58.86681 | 37016 ft | 545 kts | 59° |
| 2026-05-09 14:53 | 48.49421 | -58.77064 | 37015 ft | 545 kts | 59° |
| 2026-05-09 14:53 | 48.53513 | -58.67421 | 37014 ft | 545 kts | 59° |
| 2026-05-09 14:54 | 48.57594 | -58.57772 | 36998 ft | 545 kts | 60° |
| 2026-05-09 14:54 | 48.61673 | -58.48094 | 37001 ft | 547 kts | 60° |
| 2026-05-09 14:55 | 48.65751 | -58.38380 | 36996 ft | 547 kts | 60° |
| 2026-05-09 14:55 | 48.69796 | -58.28710 | 36987 ft | 547 kts | 60° |
| 2026-05-09 14:56 | 48.73858 | -58.18967 | 36976 ft | 547 kts | 60° |
| 2026-05-09 14:56 | 48.77911 | -58.09208 | 36975 ft | 547 kts | 60° |
| 2026-05-09 14:57 | 48.81957 | -57.99429 | 36973 ft | 547 kts | 60° |
| 2026-05-09 14:57 | 48.85998 | -57.89629 | 36962 ft | 547 kts | 60° |
| 2026-05-09 14:58 | 48.90025 | -57.79826 | 36957 ft | 547 kts | 61° |
| 2026-05-09 14:58 | 48.94046 | -57.69999 | 36956 ft | 547 kts | 61° |
| 2026-05-09 14:59 | 48.98057 | -57.60163 | 36952 ft | 547 kts | 61° |
| 2026-05-09 14:59 | 49.02036 | -57.50372 | 36950 ft | 547 kts | 61° |
| 2026-05-09 15:00 | 49.06033 | -57.40495 | 36941 ft | 548 kts | 62° |
| 2026-05-09 15:00 | 49.09384 | -57.32186 | 36944 ft | 548 kts | 62° |
| 2026-05-09 15:01 | 49.15340 | -57.17358 | 36923 ft | 548 kts | 62° |
| 2026-05-09 15:02 | 49.19316 | -57.07415 | 36940 ft | 548 kts | 62° |
| 2026-05-09 15:02 | 49.23284 | -56.97452 | 36938 ft | 548 kts | 62° |
| 2026-05-09 15:03 | 49.27239 | -56.87481 | 36936 ft | 548 kts | 62° |
| 2026-05-09 15:03 | 49.31190 | -56.77488 | 36936 ft | 548 kts | 63° |
| 2026-05-09 15:04 | 49.35129 | -56.67482 | 36944 ft | 548 kts | 63° |
| 2026-05-09 15:06 | 49.50781 | -56.27356 | 36960 ft | 548 kts | 63° |
| 2026-05-09 15:06 | 49.54676 | -56.17274 | 36962 ft | 548 kts | 63° |
| 2026-05-09 15:07 | 49.58564 | -56.07172 | 36941 ft | 548 kts | 64° |
| 2026-05-09 15:07 | 49.62439 | -55.97064 | 36966 ft | 547 kts | 64° |
| 2026-05-09 15:08 | 49.66306 | -55.86940 | 36970 ft | 547 kts | 64° |
| 2026-05-09 15:08 | 49.72087 | -55.71726 | 36971 ft | 547 kts | 64° |
| 2026-05-09 15:10 | 49.87388 | -55.31033 | 36965 ft | 546 kts | 65° |
| 2026-05-09 15:11 | 49.91186 | -55.20832 | 36967 ft | 547 kts | 65° |
| 2026-05-09 15:11 | 49.94956 | -55.10664 | 36974 ft | 547 kts | 65° |
| 2026-05-09 15:12 | 49.98745 | -55.00408 | 36974 ft | 547 kts | 65° |
| 2026-05-09 15:12 | 50.02527 | -54.90132 | 36970 ft | 547 kts | 66° |
| 2026-05-09 15:13 | 50.06294 | -54.79855 | 36973 ft | 547 kts | 66° |
| 2026-05-09 15:13 | 50.10056 | -54.69547 | 36962 ft | 547 kts | 66° |
| 2026-05-09 15:14 | 50.13800 | -54.59249 | 36964 ft | 546 kts | 66° |
| 2026-05-09 15:14 | 50.17515 | -54.48992 | 36956 ft | 546 kts | 67° |
| 2026-05-09 15:15 | 50.21239 | -54.38665 | 36954 ft | 546 kts | 67° |
| 2026-05-09 15:15 | 50.24961 | -54.28304 | 36952 ft | 546 kts | 67° |
| 2026-05-09 15:16 | 50.28666 | -54.17949 | 36944 ft | 546 kts | 67° |
| 2026-05-09 15:16 | 50.32365 | -54.07567 | 36892 ft | 546 kts | 67° |
| 2026-05-09 15:17 | 50.36053 | -53.97175 | 36939 ft | 546 kts | 68° |
| 2026-05-09 15:17 | 50.39737 | -53.86753 | 36935 ft | 546 kts | 68° |
| 2026-05-09 15:18 | 50.43412 | -53.76315 | 36899 ft | 546 kts | 68° |
| 2026-05-09 15:18 | 50.47071 | -53.65882 | 36928 ft | 546 kts | 69° |
| 2026-05-09 15:19 | 50.50720 | -53.55429 | 36917 ft | 546 kts | 69° |
| 2026-05-09 15:19 | 50.54359 | -53.44963 | 36909 ft | 546 kts | 69° |
| 2026-05-09 15:20 | 50.59797 | -53.29243 | 36893 ft | 545 kts | 69° |
| 2026-05-09 15:21 | 50.63385 | -53.18818 | 36904 ft | 544 kts | 69° |
| 2026-05-09 15:21 | 50.66985 | -53.08313 | 36896 ft | 544 kts | 69° |
| 2026-05-09 15:22 | 50.70574 | -52.97795 | 36890 ft | 544 kts | 69° |
| 2026-05-09 15:22 | 50.74150 | -52.87280 | 36881 ft | 543 kts | 70° |
| 2026-05-09 15:23 | 50.77713 | -52.76743 | 36864 ft | 545 kts | 70° |
| 2026-05-09 15:23 | 50.81253 | -52.66239 | 36865 ft | 545 kts | 71° |
| 2026-05-09 15:24 | 50.84270 | -52.55458 | 36823 ft | 521 kts | 88° |
| 2026-05-09 15:24 | 50.85617 | -52.44289 | 36840 ft | 523 kts | 85° |
| 2026-05-09 15:24 | 50.86839 | -52.38785 | 36843 ft | 540 kts | 74° |
| 2026-05-09 15:25 | 50.88542 | -52.33448 | 36846 ft | 540 kts | 75° |
| 2026-05-09 15:25 | 50.91491 | -52.22566 | 36832 ft | 538 kts | 76° |
| 2026-05-09 15:26 | 50.95950 | -52.06199 | 36801 ft | 538 kts | 77° |
| 2026-05-09 15:26 | 50.98868 | -51.95255 | 36816 ft | 539 kts | 77° |
| 2026-05-09 15:27 | 51.01761 | -51.84279 | 36801 ft | 539 kts | 77° |
| 2026-05-09 15:27 | 51.04639 | -51.73285 | 36809 ft | 539 kts | 77° |
| 2026-05-09 15:28 | 51.07494 | -51.62331 | 36761 ft | 539 kts | 77° |
| 2026-05-09 15:28 | 51.10352 | -51.51323 | 36798 ft | 537 kts | 77° |
| 2026-05-09 15:29 | 51.13192 | -51.40324 | 36795 ft | 537 kts | 78° |
| 2026-05-09 15:29 | 51.16019 | -51.29322 | 36783 ft | 537 kts | 78° |
| 2026-05-09 15:30 | 51.18840 | -51.18288 | 36788 ft | 537 kts | 78° |
| 2026-05-09 15:30 | 51.21642 | -51.07282 | 36787 ft | 535 kts | 78° |
| 2026-05-09 15:31 | 51.24426 | -50.96290 | 36785 ft | 534 kts | 78° |
| 2026-05-09 15:31 | 51.27197 | -50.85292 | 36779 ft | 534 kts | 78° |
| 2026-05-09 15:32 | 51.29957 | -50.74284 | 36774 ft | 533 kts | 79° |
| 2026-05-09 15:32 | 51.32705 | -50.63261 | 36784 ft | 535 kts | 79° |
| 2026-05-09 15:33 | 51.35449 | -50.52203 | 36783 ft | 535 kts | 79° |
| 2026-05-09 15:33 | 51.38185 | -50.41133 | 36778 ft | 534 kts | 79° |
| 2026-05-09 15:34 | 51.40907 | -50.30062 | 36784 ft | 534 kts | 79° |
| 2026-05-09 15:34 | 51.43619 | -50.18975 | 36776 ft | 534 kts | 79° |
| 2026-05-09 15:35 | 51.46320 | -50.07870 | 36782 ft | 535 kts | 79° |
| 2026-05-09 15:35 | 51.49000 | -49.96813 | 36782 ft | 535 kts | 79° |
| 2026-05-09 15:36 | 51.51775 | -49.85716 | 36790 ft | 536 kts | 78° |
| 2026-05-09 15:36 | 51.54581 | -49.74633 | 36790 ft | 536 kts | 78° |
| 2026-05-09 15:37 | 51.57370 | -49.63522 | 36795 ft | 536 kts | 78° |
| 2026-05-09 15:37 | 51.60141 | -49.52374 | 36792 ft | 536 kts | 78° |
| 2026-05-09 15:38 | 51.62894 | -49.41230 | 36795 ft | 536 kts | 79° |
| 2026-05-09 15:38 | 51.65635 | -49.30076 | 36775 ft | 535 kts | 78° |
| 2026-05-09 15:39 | 51.68367 | -49.18900 | 36797 ft | 536 kts | 79° |
| 2026-05-09 15:39 | 51.71072 | -49.07786 | 36799 ft | 536 kts | 79° |
| 2026-05-09 15:40 | 51.73786 | -48.96577 | 36808 ft | 536 kts | 79° |
| 2026-05-09 15:40 | 51.76488 | -48.85364 | 36761 ft | 536 kts | 79° |
| 2026-05-09 15:41 | 51.79181 | -48.74118 | 36813 ft | 537 kts | 79° |
| 2026-05-09 15:41 | 51.81867 | -48.62850 | 36812 ft | 537 kts | 79° |
| 2026-05-09 15:42 | 51.84542 | -48.51571 | 36821 ft | 538 kts | 79° |
| 2026-05-09 15:42 | 51.87191 | -48.40339 | 36825 ft | 538 kts | 79° |
| 2026-05-09 15:43 | 51.89853 | -48.28996 | 36822 ft | 541 kts | 78° |
| 2026-05-09 15:43 | 51.92518 | -48.17576 | 36832 ft | 542 kts | 78° |
| 2026-05-09 15:44 | 51.95173 | -48.06145 | 36840 ft | 542 kts | 79° |
| 2026-05-09 15:44 | 51.97820 | -47.94689 | 36840 ft | 542 kts | 79° |
| 2026-05-09 15:45 | 52.00449 | -47.83243 | 36838 ft | 542 kts | 78° |
| 2026-05-09 15:45 | 52.03075 | -47.71748 | 36848 ft | 542 kts | 78° |
| 2026-05-09 15:46 | 52.05666 | -47.60349 | 36861 ft | 542 kts | 78° |
| 2026-05-09 15:46 | 52.08267 | -47.48840 | 36864 ft | 542 kts | 78° |
| 2026-05-09 15:47 | 52.10855 | -47.37336 | 36860 ft | 541 kts | 78° |
| 2026-05-09 15:47 | 52.13431 | -47.25810 | 36866 ft | 541 kts | 78° |
| 2026-05-09 15:48 | 52.15558 | -47.16235 | 36886 ft | 541 kts | 78° |
| 2026-05-09 15:48 | 52.18108 | -47.04708 | 36886 ft | 541 kts | 78° |
| 2026-05-09 15:49 | 52.20648 | -46.93162 | 36863 ft | 541 kts | 78° |
| 2026-05-09 15:49 | 52.23178 | -46.81611 | 36900 ft | 540 kts | 78° |
| 2026-05-09 15:50 | 52.25688 | -46.70074 | 36915 ft | 540 kts | 78° |
| 2026-05-09 15:50 | 52.28171 | -46.58593 | 36919 ft | 540 kts | 78° |
| 2026-05-09 15:51 | 52.30660 | -46.47024 | 36921 ft | 540 kts | 78° |
| 2026-05-09 15:51 | 52.33130 | -46.35485 | 36924 ft | 535 kts | 78° |
| 2026-05-09 15:52 | 52.36787 | -46.18276 | 36940 ft | 533 kts | 77° |
| 2026-05-09 15:53 | 52.39201 | -46.06827 | 36944 ft | 531 kts | 78° |
| 2026-05-09 15:53 | 52.41601 | -45.95377 | 36922 ft | 531 kts | 77° |
| 2026-05-09 15:54 | 52.43980 | -45.83967 | 36958 ft | 529 kts | 77° |
| 2026-05-09 15:54 | 52.46347 | -45.72554 | 36972 ft | 528 kts | 78° |
| 2026-05-09 15:55 | 52.48687 | -45.61204 | 36980 ft | 528 kts | 78° |
| 2026-05-09 15:55 | 52.51027 | -45.49788 | 36965 ft | 528 kts | 78° |
| 2026-05-09 15:56 | 52.53355 | -45.38365 | 36975 ft | 528 kts | 77° |
| 2026-05-09 15:56 | 52.55168 | -45.29425 | 36992 ft | 527 kts | 78° |
| 2026-05-09 15:57 | 52.57479 | -45.17969 | 37002 ft | 527 kts | 78° |
| 2026-05-09 15:57 | 52.59774 | -45.06524 | 37008 ft | 527 kts | 78° |
| 2026-05-09 15:58 | 52.62061 | -44.95052 | 37003 ft | 527 kts | 78° |
| 2026-05-09 15:58 | 52.64334 | -44.83581 | 37014 ft | 527 kts | 78° |
| 2026-05-09 15:59 | 52.66597 | -44.72099 | 37033 ft | 527 kts | 78° |
| 2026-05-09 15:59 | 52.68848 | -44.60607 | 37032 ft | 527 kts | 78° |
| 2026-05-09 16:00 | 52.71087 | -44.49104 | 37029 ft | 527 kts | 78° |
| 2026-05-09 16:00 | 52.73316 | -44.37585 | 37037 ft | 527 kts | 78° |
| 2026-05-09 16:01 | 52.75518 | -44.26135 | 37065 ft | 527 kts | 79° |
| 2026-05-09 16:01 | 52.77723 | -44.14596 | 37057 ft | 527 kts | 78° |
| 2026-05-09 16:02 | 52.79919 | -44.03045 | 37067 ft | 527 kts | 78° |
| 2026-05-09 16:02 | 52.83188 | -43.85715 | 37056 ft | 526 kts | 78° |
| 2026-05-09 16:03 | 52.85352 | -43.74150 | 37087 ft | 526 kts | 78° |
| 2026-05-09 16:03 | 52.87505 | -43.62576 | 37096 ft | 526 kts | 78° |
| 2026-05-09 16:04 | 52.89647 | -43.50986 | 37098 ft | 526 kts | 78° |
| 2026-05-09 16:04 | 52.91778 | -43.39384 | 37105 ft | 526 kts | 78° |
| 2026-05-09 16:05 | 52.93882 | -43.27857 | 37120 ft | 525 kts | 78° |
| 2026-05-09 16:05 | 52.95985 | -43.16260 | 37134 ft | 525 kts | 78° |
| 2026-05-09 16:06 | 52.98080 | -43.04637 | 37128 ft | 525 kts | 78° |
| 2026-05-09 16:06 | 53.00160 | -42.93020 | 37124 ft | 525 kts | 78° |
| 2026-05-09 16:07 | 53.02228 | -42.81398 | 37160 ft | 523 kts | 78° |
| 2026-05-09 16:07 | 53.04277 | -42.69810 | 37162 ft | 522 kts | 78° |
| 2026-05-09 16:08 | 53.06312 | -42.58223 | 37170 ft | 522 kts | 78° |
| 2026-05-09 16:08 | 53.08334 | -42.46639 | 37173 ft | 520 kts | 78° |
| 2026-05-09 16:09 | 53.10340 | -42.35067 | 37194 ft | 521 kts | 78° |
| 2026-05-09 16:09 | 53.12336 | -42.23475 | 37195 ft | 521 kts | 78° |
| 2026-05-09 16:10 | 53.14321 | -42.11877 | 37205 ft | 521 kts | 78° |
| 2026-05-09 16:10 | 53.16295 | -42.00263 | 37214 ft | 521 kts | 78° |
| 2026-05-09 16:11 | 53.18257 | -41.88641 | 37207 ft | 521 kts | 78° |
| 2026-05-09 16:11 | 53.20196 | -41.77084 | 37238 ft | 521 kts | 78° |
| 2026-05-09 16:12 | 53.22137 | -41.65435 | 37235 ft | 521 kts | 78° |
| 2026-05-09 16:12 | 53.24067 | -41.53774 | 37246 ft | 521 kts | 78° |
| 2026-05-09 16:13 | 53.25985 | -41.42105 | 37246 ft | 521 kts | 78° |
| 2026-05-09 16:13 | 53.27890 | -41.30427 | 37264 ft | 522 kts | 78° |
| 2026-05-09 16:14 | 53.29791 | -41.18697 | 37265 ft | 523 kts | 78° |
| 2026-05-09 16:14 | 53.31686 | -41.06930 | 37273 ft | 523 kts | 78° |
| 2026-05-09 16:15 | 53.33554 | -40.95252 | 37284 ft | 523 kts | 78° |
| 2026-05-09 16:15 | 53.35422 | -40.83486 | 37286 ft | 523 kts | 78° |
| 2026-05-09 16:16 | 53.37277 | -40.71714 | 37306 ft | 523 kts | 78° |
| 2026-05-09 16:16 | 53.39122 | -40.59922 | 37306 ft | 523 kts | 78° |
| 2026-05-09 16:17 | 53.40955 | -40.48130 | 37314 ft | 523 kts | 78° |
| 2026-05-09 16:17 | 53.42778 | -40.36310 | 37313 ft | 523 kts | 78° |
| 2026-05-09 16:18 | 53.44586 | -40.24508 | 37334 ft | 523 kts | 78° |
| 2026-05-09 16:18 | 53.46382 | -40.12696 | 37334 ft | 522 kts | 78° |
| 2026-05-09 16:19 | 53.48162 | -40.00893 | 37334 ft | 521 kts | 78° |
| 2026-05-09 16:19 | 53.49895 | -39.89153 | 37350 ft | 521 kts | 78° |
| 2026-05-09 16:20 | 53.51579 | -39.77314 | 37362 ft | 521 kts | 79° |
| 2026-05-09 16:20 | 53.53250 | -39.65463 | 37373 ft | 521 kts | 79° |
| 2026-05-09 16:21 | 53.54918 | -39.53614 | 37369 ft | 521 kts | 79° |
| 2026-05-09 16:21 | 53.56578 | -39.41750 | 37361 ft | 521 kts | 79° |
| 2026-05-09 16:22 | 53.58228 | -39.29877 | 37379 ft | 521 kts | 79° |
| 2026-05-09 16:22 | 53.59863 | -39.18008 | 37386 ft | 521 kts | 79° |
| 2026-05-09 16:23 | 53.61489 | -39.06114 | 37379 ft | 521 kts | 79° |
| 2026-05-09 16:23 | 53.63101 | -38.94222 | 37396 ft | 520 kts | 79° |
| 2026-05-09 16:24 | 53.64702 | -38.82316 | 37391 ft | 521 kts | 79° |
| 2026-05-09 16:24 | 53.66287 | -38.70429 | 37407 ft | 519 kts | 79° |
| 2026-05-09 16:25 | 53.67593 | -38.60571 | 37411 ft | 518 kts | 79° |
| 2026-05-09 16:25 | 53.69406 | -38.46761 | 37426 ft | 519 kts | 79° |
| 2026-05-09 16:26 | 53.70961 | -38.34802 | 37433 ft | 518 kts | 79° |
| 2026-05-09 16:26 | 53.72484 | -38.22998 | 37428 ft | 518 kts | 79° |
| 2026-05-09 16:27 | 53.74008 | -38.11098 | 37436 ft | 518 kts | 79° |
| 2026-05-09 16:27 | 53.75515 | -37.99211 | 37573 ft | 517 kts | 79° |
| 2026-05-09 16:28 | 53.77008 | -37.87344 | 37988 ft | 511 kts | 80° |
| 2026-05-09 16:28 | 53.77740 | -37.81498 | 38451 ft | 504 kts | 79° |
| 2026-05-09 16:28 | 53.78459 | -37.75741 | 38876 ft | 499 kts | 80° |
| 2026-05-09 16:29 | 53.79171 | -37.70002 | 39129 ft | 497 kts | 80° |
| 2026-05-09 16:29 | 53.79877 | -37.64290 | 39282 ft | 497 kts | 80° |
| 2026-05-09 16:29 | 53.80581 | -37.58566 | 39412 ft | 497 kts | 80° |
| 2026-05-09 16:29 | 53.81281 | -37.52836 | 39456 ft | 498 kts | 79° |
| 2026-05-09 16:30 | 53.82682 | -37.41304 | 39471 ft | 502 kts | 79° |
| 2026-05-09 16:30 | 53.84081 | -37.29696 | 39483 ft | 505 kts | 79° |
| 2026-05-09 16:31 | 53.85476 | -37.18017 | 39486 ft | 506 kts | 79° |
| 2026-05-09 16:31 | 53.86865 | -37.06288 | 39499 ft | 507 kts | 79° |
| 2026-05-09 16:32 | 53.88009 | -36.96549 | 39493 ft | 507 kts | 79° |
| 2026-05-09 16:32 | 53.89606 | -36.82845 | 39495 ft | 507 kts | 79° |
| 2026-05-09 16:33 | 53.90959 | -36.71118 | 39502 ft | 506 kts | 79° |
| 2026-05-09 16:33 | 53.92300 | -36.59387 | 39511 ft | 506 kts | 79° |
| 2026-05-09 16:34 | 53.93620 | -36.47726 | 39511 ft | 506 kts | 79° |
| 2026-05-09 16:34 | 53.94938 | -36.35978 | 39517 ft | 506 kts | 79° |
| 2026-05-09 16:35 | 53.96242 | -36.24242 | 39515 ft | 505 kts | 78° |
| 2026-05-09 16:35 | 53.97533 | -36.12529 | 39525 ft | 504 kts | 78° |
| 2026-05-09 16:36 | 53.99856 | -35.91124 | 39536 ft | 503 kts | 78° |
| 2026-05-09 16:37 | 54.01109 | -35.79425 | 39533 ft | 503 kts | 78° |
| 2026-05-09 16:37 | 54.02351 | -35.67734 | 39549 ft | 502 kts | 79° |
| 2026-05-09 16:38 | 54.03582 | -35.56024 | 39545 ft | 503 kts | 79° |
| 2026-05-09 16:38 | 54.04801 | -35.44311 | 39555 ft | 503 kts | 78° |
| 2026-05-09 16:39 | 54.06009 | -35.32577 | 39552 ft | 503 kts | 78° |
| 2026-05-09 16:39 | 54.07204 | -35.20873 | 39564 ft | 502 kts | 79° |
| 2026-05-09 16:40 | 54.08381 | -35.09219 | 39561 ft | 502 kts | 79° |
| 2026-05-09 16:42 | 54.12963 | -34.62644 | 39576 ft | 493 kts | 79° |
| 2026-05-09 16:42 | 54.14071 | -34.51099 | 39578 ft | 493 kts | 79° |
| 2026-05-09 16:43 | 54.15167 | -34.39557 | 39579 ft | 493 kts | 79° |
| 2026-05-09 16:43 | 54.16251 | -34.28003 | 39580 ft | 493 kts | 79° |
| 2026-05-09 16:44 | 54.17326 | -34.16425 | 39587 ft | 493 kts | 79° |
| 2026-05-09 16:44 | 54.18383 | -34.04922 | 39589 ft | 493 kts | 79° |
| 2026-05-09 16:45 | 54.19434 | -33.93349 | 39590 ft | 493 kts | 79° |
| 2026-05-09 16:45 | 54.20476 | -33.81755 | 39589 ft | 494 kts | 79° |
| 2026-05-09 16:46 | 54.21507 | -33.70154 | 39590 ft | 494 kts | 79° |
| 2026-05-09 16:46 | 54.22526 | -33.58551 | 39594 ft | 494 kts | 79° |
| 2026-05-09 16:47 | 54.23533 | -33.46942 | 39598 ft | 492 kts | 79° |
| 2026-05-09 16:47 | 54.24528 | -33.35358 | 39596 ft | 492 kts | 79° |
| 2026-05-09 16:48 | 54.25509 | -33.23789 | 39601 ft | 492 kts | 79° |
| 2026-05-09 16:48 | 54.26480 | -33.12211 | 39614 ft | 492 kts | 79° |
| 2026-05-09 16:49 | 54.27440 | -33.00624 | 39606 ft | 491 kts | 79° |
| 2026-05-09 16:50 | 54.28858 | -32.83249 | 39605 ft | 491 kts | 79° |
| 2026-05-09 16:50 | 54.29783 | -32.71737 | 39604 ft | 491 kts | 79° |
| 2026-05-09 16:51 | 54.30704 | -32.60129 | 39601 ft | 491 kts | 80° |
| 2026-05-09 16:51 | 54.31613 | -32.48523 | 39613 ft | 491 kts | 79° |
| 2026-05-09 16:52 | 54.32511 | -32.36909 | 39608 ft | 491 kts | 79° |
| 2026-05-09 16:52 | 54.33398 | -32.25310 | 39614 ft | 491 kts | 79° |
| 2026-05-09 16:53 | 54.34269 | -32.13763 | 39610 ft | 491 kts | 80° |
| 2026-05-09 16:53 | 54.35132 | -32.02153 | 39618 ft | 491 kts | 80° |
| 2026-05-09 16:54 | 54.35985 | -31.90523 | 39606 ft | 491 kts | 79° |
| 2026-05-09 16:54 | 54.36828 | -31.78885 | 39624 ft | 491 kts | 79° |
| 2026-05-09 16:55 | 54.37658 | -31.67268 | 39614 ft | 491 kts | 79° |
| 2026-05-09 16:55 | 54.38478 | -31.55641 | 39625 ft | 491 kts | 80° |
| 2026-05-09 16:56 | 54.39285 | -31.44014 | 39624 ft | 491 kts | 80° |
| 2026-05-09 16:56 | 54.40081 | -31.32373 | 39628 ft | 490 kts | 79° |
| 2026-05-09 16:57 | 54.40861 | -31.20821 | 39629 ft | 490 kts | 79° |
| 2026-05-09 16:57 | 54.41634 | -31.09196 | 39629 ft | 490 kts | 80° |
| 2026-05-09 16:58 | 54.42397 | -30.97558 | 39629 ft | 490 kts | 80° |
| 2026-05-09 16:58 | 54.43147 | -30.85928 | 39634 ft | 488 kts | 79° |
| 2026-05-09 16:59 | 54.43882 | -30.74337 | 39637 ft | 487 kts | 79° |
| 2026-05-09 16:59 | 54.44605 | -30.62786 | 39639 ft | 486 kts | 79° |
| 2026-05-09 17:00 | 54.45317 | -30.51236 | 39638 ft | 486 kts | 79° |
| 2026-05-09 17:00 | 54.46019 | -30.39686 | 39640 ft | 486 kts | 79° |
| 2026-05-09 17:01 | 54.46704 | -30.28186 | 39643 ft | 486 kts | 80° |
| 2026-05-09 17:01 | 54.47383 | -30.16610 | 39644 ft | 485 kts | 79° |
| 2026-05-09 17:02 | 54.48048 | -30.05076 | 39638 ft | 485 kts | 79° |
| 2026-05-09 17:02 | 54.48678 | -29.93527 | 39646 ft | 485 kts | 81° |
| 2026-05-09 17:03 | 54.49137 | -29.81924 | 39645 ft | 486 kts | 82° |
| 2026-05-09 17:05 | 54.50828 | -29.35707 | 39643 ft | 481 kts | 81° |
| 2026-05-09 17:05 | 54.51239 | -29.24219 | 39648 ft | 481 kts | 81° |
| 2026-05-09 17:06 | 54.51635 | -29.12785 | 39648 ft | 481 kts | 81° |
| 2026-05-09 17:06 | 54.52022 | -29.01288 | 39649 ft | 480 kts | 81° |
| 2026-05-09 17:07 | 54.52396 | -28.89813 | 39648 ft | 479 kts | 81° |
| 2026-05-09 17:07 | 54.52762 | -28.78338 | 39648 ft | 479 kts | 81° |
| 2026-05-09 17:08 | 54.53114 | -28.66877 | 39648 ft | 480 kts | 81° |
| 2026-05-09 17:08 | 54.53623 | -28.49670 | 39651 ft | 480 kts | 82° |
| 2026-05-09 17:09 | 54.53948 | -28.38190 | 39651 ft | 480 kts | 82° |
| 2026-05-09 17:09 | 54.54259 | -28.26820 | 39653 ft | 477 kts | 81° |
| 2026-05-09 17:10 | 54.54561 | -28.15426 | 39653 ft | 476 kts | 81° |
| 2026-05-09 17:10 | 54.54852 | -28.04050 | 39653 ft | 476 kts | 82° |
| 2026-05-09 17:11 | 54.55134 | -27.92658 | 39669 ft | 476 kts | 82° |
| 2026-05-09 17:11 | 54.55402 | -27.81286 | 39649 ft | 474 kts | 81° |
| 2026-05-09 17:12 | 54.55660 | -27.69942 | 39650 ft | 474 kts | 82° |
| 2026-05-09 17:12 | 54.55908 | -27.58579 | 39653 ft | 474 kts | 82° |
| 2026-05-09 17:13 | 54.56143 | -27.47312 | 39654 ft | 474 kts | 82° |
| 2026-05-09 17:13 | 54.56370 | -27.35950 | 39650 ft | 474 kts | 82° |
| 2026-05-09 17:14 | 54.56585 | -27.24600 | 39660 ft | 473 kts | 82° |
| 2026-05-09 17:14 | 54.56789 | -27.13271 | 39663 ft | 472 kts | 82° |
| 2026-05-09 17:15 | 54.56981 | -27.01970 | 39653 ft | 470 kts | 82° |
| 2026-05-09 17:15 | 54.57162 | -26.90750 | 39657 ft | 468 kts | 82° |
| 2026-05-09 17:17 | 54.57786 | -26.45941 | 39650 ft | 467 kts | 82° |
| 2026-05-09 17:18 | 54.57916 | -26.34746 | 39650 ft | 467 kts | 82° |
| 2026-05-09 17:18 | 54.58035 | -26.23546 | 39650 ft | 467 kts | 82° |
| 2026-05-09 17:19 | 54.58143 | -26.12414 | 39672 ft | 467 kts | 82° |
| 2026-05-09 17:19 | 54.58241 | -26.01206 | 39651 ft | 467 kts | 82° |
| 2026-05-09 17:20 | 54.58330 | -25.90011 | 39652 ft | 467 kts | 82° |
| 2026-05-09 17:20 | 54.58407 | -25.78817 | 39642 ft | 466 kts | 82° |
| 2026-05-09 17:21 | 54.58473 | -25.67656 | 39646 ft | 465 kts | 82° |
| 2026-05-09 17:21 | 54.58530 | -25.56513 | 39647 ft | 464 kts | 82° |
| 2026-05-09 17:22 | 54.58578 | -25.45378 | 39646 ft | 464 kts | 82° |
| 2026-05-09 17:22 | 54.58615 | -25.34239 | 39643 ft | 464 kts | 82° |
| 2026-05-09 17:23 | 54.58637 | -25.24990 | 39643 ft | 464 kts | 82° |
| 2026-05-09 17:23 | 54.58657 | -25.12038 | 39643 ft | 465 kts | 82° |
| 2026-05-09 17:25 | 54.58647 | -24.80466 | 39639 ft | 465 kts | 82° |
| 2026-05-09 17:25 | 54.58623 | -24.69332 | 39642 ft | 465 kts | 82° |
| 2026-05-09 17:26 | 54.58590 | -24.58190 | 39636 ft | 465 kts | 82° |
| 2026-05-09 17:26 | 54.58546 | -24.47066 | 39637 ft | 463 kts | 82° |
| 2026-05-09 17:27 | 54.58491 | -24.35987 | 39664 ft | 462 kts | 82° |
| 2026-05-09 17:27 | 54.58428 | -24.24922 | 39638 ft | 462 kts | 82° |
| 2026-05-09 17:28 | 54.58355 | -24.13833 | 39635 ft | 462 kts | 82° |
| 2026-05-09 17:28 | 54.58273 | -24.02831 | 39632 ft | 462 kts | 82° |
| 2026-05-09 17:29 | 54.58179 | -23.91751 | 39633 ft | 462 kts | 82° |
| 2026-05-09 17:29 | 54.58075 | -23.80668 | 39630 ft | 462 kts | 82° |
| 2026-05-09 17:30 | 54.57960 | -23.69584 | 39636 ft | 462 kts | 82° |
| 2026-05-09 17:30 | 54.57836 | -23.58510 | 39624 ft | 462 kts | 82° |
| 2026-05-09 17:31 | 54.57701 | -23.47419 | 39632 ft | 462 kts | 82° |
| 2026-05-09 17:32 | 54.57320 | -23.19723 | 39627 ft | 461 kts | 82° |
| 2026-05-09 17:33 | 54.57152 | -23.08752 | 39622 ft | 461 kts | 82° |
| 2026-05-09 17:33 | 54.56971 | -22.97615 | 39627 ft | 462 kts | 83° |
| 2026-05-09 17:34 | 54.56782 | -22.86634 | 39620 ft | 462 kts | 83° |
| 2026-05-09 17:35 | 54.56038 | -22.47906 | 39615 ft | 462 kts | 83° |
| 2026-05-09 17:36 | 54.55803 | -22.36840 | 39615 ft | 462 kts | 83° |
| 2026-05-09 17:36 | 54.55558 | -22.25771 | 39613 ft | 462 kts | 83° |
| 2026-05-09 17:37 | 54.55304 | -22.14767 | 39613 ft | 462 kts | 83° |
| 2026-05-09 17:37 | 54.55039 | -22.03706 | 39613 ft | 462 kts | 83° |
| 2026-05-09 17:38 | 54.54764 | -21.92650 | 39613 ft | 462 kts | 84° |
| 2026-05-09 17:39 | 54.54331 | -21.76055 | 39604 ft | 462 kts | 84° |
| 2026-05-09 17:39 | 54.54031 | -21.65001 | 39606 ft | 462 kts | 84° |
| 2026-05-09 17:40 | 54.53720 | -21.53950 | 39602 ft | 462 kts | 84° |
| 2026-05-09 17:40 | 54.53399 | -21.42889 | 39602 ft | 462 kts | 84° |
| 2026-05-09 17:41 | 54.53069 | -21.31827 | 39599 ft | 463 kts | 84° |
| 2026-05-09 17:41 | 54.52727 | -21.20748 | 39599 ft | 464 kts | 84° |
| 2026-05-09 17:42 | 54.52373 | -21.09654 | 39601 ft | 464 kts | 84° |
| 2026-05-09 17:42 | 54.52013 | -20.98646 | 39594 ft | 464 kts | 84° |
| 2026-05-09 17:43 | 54.51637 | -20.87481 | 39592 ft | 464 kts | 84° |
| 2026-05-09 17:43 | 54.51257 | -20.76467 | 39604 ft | 465 kts | 85° |
| 2026-05-09 17:44 | 54.50864 | -20.65350 | 39585 ft | 466 kts | 85° |
| 2026-05-09 17:44 | 54.50459 | -20.54230 | 39586 ft | 466 kts | 85° |
| 2026-05-09 17:45 | 54.50043 | -20.43101 | 39586 ft | 466 kts | 85° |
| 2026-05-09 17:45 | 54.49617 | -20.31977 | 39583 ft | 466 kts | 85° |
| 2026-05-09 17:46 | 54.49181 | -20.20845 | 39606 ft | 467 kts | 85° |
| 2026-05-09 17:46 | 54.48735 | -20.09686 | 39584 ft | 469 kts | 86° |
| 2026-05-09 17:47 | 54.47913 | -19.98480 | 39581 ft | 480 kts | 96° |
| 2026-05-09 17:47 | 54.46131 | -19.87352 | 39580 ft | 484 kts | 98° |
| 2026-05-09 17:48 | 54.44159 | -19.76269 | 39572 ft | 485 kts | 98° |
| 2026-05-09 17:48 | 54.42158 | -19.65204 | 39575 ft | 485 kts | 98° |
| 2026-05-09 17:49 | 54.40163 | -19.54130 | 39583 ft | 486 kts | 99° |
| 2026-05-09 17:49 | 54.38176 | -19.43093 | 39572 ft | 488 kts | 99° |
| 2026-05-09 17:50 | 54.36164 | -19.31973 | 39566 ft | 488 kts | 99° |
| 2026-05-09 17:50 | 54.33126 | -19.15322 | 39561 ft | 488 kts | 99° |
| 2026-05-09 17:51 | 54.31085 | -19.04219 | 39555 ft | 488 kts | 99° |
| 2026-05-09 17:51 | 54.29036 | -18.93139 | 39590 ft | 489 kts | 99° |
| 2026-05-09 17:52 | 54.26972 | -18.82031 | 39559 ft | 491 kts | 100° |
| 2026-05-09 17:52 | 54.24890 | -18.70904 | 39549 ft | 492 kts | 100° |
| 2026-05-09 17:53 | 54.22793 | -18.59772 | 39547 ft | 492 kts | 100° |
| 2026-05-09 17:53 | 54.20688 | -18.48654 | 39545 ft | 492 kts | 100° |
| 2026-05-09 17:54 | 54.18568 | -18.37526 | 39546 ft | 492 kts | 100° |
| 2026-05-09 17:54 | 54.16442 | -18.26427 | 39547 ft | 493 kts | 101° |
| 2026-05-09 17:55 | 54.14298 | -18.15294 | 39562 ft | 495 kts | 101° |
| 2026-05-09 17:55 | 54.12151 | -18.04212 | 39527 ft | 496 kts | 101° |
| 2026-05-09 17:56 | 54.09971 | -17.93036 | 39532 ft | 496 kts | 101° |
| 2026-05-09 17:57 | 54.06684 | -17.76301 | 39519 ft | 496 kts | 101° |
| 2026-05-09 17:57 | 54.04481 | -17.65165 | 39546 ft | 497 kts | 101° |
| 2026-05-09 17:58 | 54.02264 | -17.54010 | 39522 ft | 499 kts | 102° |
| 2026-05-09 17:58 | 54.00024 | -17.42810 | 39520 ft | 500 kts | 102° |
| 2026-05-09 17:59 | 53.97786 | -17.31685 | 39514 ft | 501 kts | 102° |
| 2026-05-09 17:59 | 53.95518 | -17.20476 | 39506 ft | 502 kts | 102° |
| 2026-05-09 18:00 | 53.93237 | -17.09268 | 39510 ft | 502 kts | 102° |
| 2026-05-09 18:00 | 53.90948 | -16.98083 | 39511 ft | 503 kts | 102° |
| 2026-05-09 18:01 | 53.88641 | -16.86866 | 39507 ft | 504 kts | 103° |
| 2026-05-09 18:01 | 53.86315 | -16.75633 | 39496 ft | 505 kts | 103° |
| 2026-05-09 18:02 | 53.83975 | -16.64393 | 39511 ft | 505 kts | 103° |
| 2026-05-09 18:02 | 53.81629 | -16.53184 | 39495 ft | 505 kts | 103° |
| 2026-05-09 18:03 | 53.79271 | -16.41984 | 39487 ft | 506 kts | 103° |
| 2026-05-09 18:03 | 53.76915 | -16.30853 | 39487 ft | 506 kts | 103° |
| 2026-05-09 18:04 | 53.74536 | -16.19674 | 39477 ft | 506 kts | 103° |
| 2026-05-09 18:04 | 53.72144 | -16.08494 | 39479 ft | 506 kts | 103° |
| 2026-05-09 18:05 | 53.69743 | -15.97333 | 39479 ft | 506 kts | 103° |
| 2026-05-09 18:05 | 53.67333 | -15.86190 | 39478 ft | 505 kts | 104° |
| 2026-05-09 18:06 | 53.64913 | -15.75066 | 39471 ft | 505 kts | 104° |
| 2026-05-09 18:06 | 53.62487 | -15.63970 | 39468 ft | 505 kts | 104° |
| 2026-05-09 18:07 | 53.60051 | -15.52892 | 39464 ft | 505 kts | 105° |
| 2026-05-09 18:07 | 53.57604 | -15.41821 | 39459 ft | 505 kts | 105° |
| 2026-05-09 18:08 | 53.55143 | -15.30745 | 39456 ft | 505 kts | 105° |
| 2026-05-09 18:08 | 53.52676 | -15.19702 | 39463 ft | 505 kts | 105° |
| 2026-05-09 18:09 | 53.50204 | -15.08693 | 39461 ft | 503 kts | 106° |
| 2026-05-09 18:09 | 53.48451 | -14.97481 | 39446 ft | 489 kts | 86° |
| 2026-05-09 18:10 | 53.49079 | -14.86267 | 39442 ft | 482 kts | 77° |
| 2026-05-09 18:10 | 53.49861 | -14.75058 | 39442 ft | 485 kts | 81° |
| 2026-05-09 18:11 | 53.50127 | -14.65640 | 39439 ft | 487 kts | 84° |
| 2026-05-09 18:11 | 53.50173 | -14.54222 | 39440 ft | 490 kts | 86° |
| 2026-05-09 18:12 | 53.50136 | -14.42761 | 39436 ft | 491 kts | 86° |
| 2026-05-09 18:12 | 53.50100 | -14.31291 | 39438 ft | 491 kts | 86° |
| 2026-05-09 18:13 | 53.50071 | -14.19808 | 39425 ft | 491 kts | 86° |
| 2026-05-09 18:13 | 53.50037 | -14.08402 | 39419 ft | 491 kts | 86° |
| 2026-05-09 18:14 | 53.49982 | -13.96876 | 39423 ft | 495 kts | 88° |
| 2026-05-09 18:14 | 53.49457 | -13.85306 | 39426 ft | 498 kts | 92° |
| 2026-05-09 18:15 | 53.48712 | -13.73719 | 39413 ft | 499 kts | 92° |
| 2026-05-09 18:15 | 53.48014 | -13.62152 | 39420 ft | 498 kts | 91° |
| 2026-05-09 18:16 | 53.47363 | -13.50567 | 39419 ft | 499 kts | 92° |
| 2026-05-09 18:16 | 53.46719 | -13.38948 | 39405 ft | 501 kts | 92° |
| 2026-05-09 18:17 | 53.46066 | -13.27382 | 39406 ft | 501 kts | 92° |
| 2026-05-09 18:17 | 53.45394 | -13.15740 | 39405 ft | 501 kts | 92° |
| 2026-05-09 18:18 | 53.44708 | -13.04086 | 39397 ft | 501 kts | 92° |
| 2026-05-09 18:18 | 53.44011 | -12.92436 | 39399 ft | 502 kts | 92° |
| 2026-05-09 18:19 | 53.43301 | -12.80757 | 39389 ft | 504 kts | 92° |
| 2026-05-09 18:19 | 53.42212 | -12.63214 | 39387 ft | 504 kts | 92° |
| 2026-05-09 18:20 | 53.41477 | -12.51602 | 39384 ft | 504 kts | 92° |
| 2026-05-09 18:20 | 53.40726 | -12.39921 | 39390 ft | 505 kts | 92° |
| 2026-05-09 18:21 | 53.39961 | -12.28205 | 39375 ft | 506 kts | 92° |
| 2026-05-09 18:21 | 53.39185 | -12.16496 | 39374 ft | 506 kts | 94° |
| 2026-05-09 18:22 | 53.38395 | -12.04770 | 39379 ft | 506 kts | 93° |
| 2026-05-09 18:22 | 53.37595 | -11.93074 | 39371 ft | 506 kts | 92° |
| 2026-05-09 18:23 | 53.36785 | -11.81355 | 39367 ft | 507 kts | 94° |
| 2026-05-09 18:23 | 53.35962 | -11.69631 | 39356 ft | 508 kts | 93° |
| 2026-05-09 18:24 | 53.35123 | -11.57895 | 39353 ft | 508 kts | 94° |
| 2026-05-09 18:25 | 53.33844 | -11.40295 | 39348 ft | 508 kts | 94° |
| 2026-05-09 18:25 | 53.32978 | -11.28562 | 39352 ft | 509 kts | 94° |
| 2026-05-09 18:26 | 53.32099 | -11.16799 | 39345 ft | 510 kts | 94° |
| 2026-05-09 18:26 | 53.31207 | -11.05036 | 39338 ft | 510 kts | 94° |
| 2026-05-09 18:27 | 53.30301 | -10.93286 | 39338 ft | 510 kts | 94° |
| 2026-05-09 18:27 | 53.29387 | -10.81540 | 39336 ft | 510 kts | 95° |
| 2026-05-09 18:28 | 53.28465 | -10.69859 | 39330 ft | 510 kts | 95° |
| 2026-05-09 18:28 | 53.27527 | -10.58112 | 39328 ft | 510 kts | 94° |
| 2026-05-09 18:29 | 53.26576 | -10.46365 | 39321 ft | 510 kts | 94° |
| 2026-05-09 18:29 | 53.25613 | -10.34627 | 39323 ft | 510 kts | 96° |
| 2026-05-09 18:30 | 53.24637 | -10.22884 | 39319 ft | 511 kts | 95° |
| 2026-05-09 18:30 | 53.23648 | -10.11123 | 39319 ft | 512 kts | 95° |
| 2026-05-09 18:31 | 53.22649 | -9.99352 | 39311 ft | 512 kts | 96° |
| 2026-05-09 18:31 | 53.21645 | -9.87661 | 39311 ft | 512 kts | 96° |
| 2026-05-09 18:32 | 53.20621 | -9.75910 | 39306 ft | 512 kts | 95° |
| 2026-05-09 18:32 | 53.19584 | -9.64146 | 39301 ft | 513 kts | 96° |
| 2026-05-09 18:33 | 53.18535 | -9.52378 | 39300 ft | 513 kts | 96° |
| 2026-05-09 18:33 | 53.17475 | -9.40605 | 39285 ft | 513 kts | 96° |
| 2026-05-09 18:34 | 53.16402 | -9.28840 | 39286 ft | 513 kts | 97° |
| 2026-05-09 18:34 | 53.15314 | -9.17065 | 39281 ft | 514 kts | 97° |
| 2026-05-09 18:35 | 53.14216 | -9.05286 | 39280 ft | 515 kts | 97° |
| 2026-05-09 18:35 | 53.13103 | -8.93479 | 39272 ft | 516 kts | 97° |
| 2026-05-09 18:36 | 53.11976 | -8.81677 | 39266 ft | 516 kts | 97° |
| 2026-05-09 18:36 | 53.10841 | -8.69891 | 39261 ft | 516 kts | 97° |
| 2026-05-09 18:37 | 53.09698 | -8.58164 | 39268 ft | 517 kts | 98° |
| 2026-05-09 18:37 | 53.08535 | -8.46341 | 39262 ft | 518 kts | 97° |
| 2026-05-09 18:38 | 53.07360 | -8.34517 | 39261 ft | 518 kts | 98° |
| 2026-05-09 18:38 | 53.06170 | -8.22689 | 39254 ft | 519 kts | 98° |
| 2026-05-09 18:40 | 53.01290 | -7.75406 | 39253 ft | 519 kts | 99° |
| 2026-05-09 18:41 | 53.00040 | -7.63589 | 39246 ft | 519 kts | 99° |
| 2026-05-09 18:41 | 52.98788 | -7.51860 | 39240 ft | 519 kts | 99° |
| 2026-05-09 18:42 | 52.97514 | -7.40050 | 39241 ft | 520 kts | 99° |
| 2026-05-09 18:42 | 52.96228 | -7.28253 | 39236 ft | 520 kts | 99° |
| 2026-05-09 18:43 | 52.94930 | -7.16455 | 39236 ft | 519 kts | 100° |
| 2026-05-09 18:43 | 52.93621 | -7.04670 | 39231 ft | 519 kts | 100° |
| 2026-05-09 18:44 | 52.92300 | -6.92888 | 39226 ft | 520 kts | 100° |
| 2026-05-09 18:44 | 52.90967 | -6.81105 | 39228 ft | 521 kts | 100° |
| 2026-05-09 18:45 | 52.89622 | -6.69328 | 39231 ft | 520 kts | 101° |
| 2026-05-09 18:45 | 52.88261 | -6.57529 | 39230 ft | 520 kts | 101° |
| 2026-05-09 18:46 | 52.86901 | -6.45835 | 39226 ft | 521 kts | 101° |
| 2026-05-09 18:46 | 52.85519 | -6.34067 | 39227 ft | 521 kts | 101° |
| 2026-05-09 18:47 | 52.84123 | -6.22290 | 39224 ft | 521 kts | 101° |
| 2026-05-09 18:47 | 52.82719 | -6.10541 | 39225 ft | 519 kts | 101° |
| 2026-05-09 18:48 | 52.81308 | -5.98841 | 39221 ft | 519 kts | 102° |
| 2026-05-09 18:48 | 52.79884 | -5.87133 | 39220 ft | 520 kts | 102° |
| 2026-05-09 18:49 | 52.78446 | -5.75418 | 39219 ft | 519 kts | 102° |
| 2026-05-09 18:49 | 52.77008 | -5.63808 | 39213 ft | 520 kts | 102° |
| 2026-05-09 18:50 | 52.75548 | -5.52113 | 39213 ft | 520 kts | 102° |
| 2026-05-09 18:50 | 52.73856 | -5.40533 | 39206 ft | 519 kts | 107° |
| 2026-05-09 18:51 | 52.71707 | -5.29142 | 39208 ft | 519 kts | 108° |
| 2026-05-09 18:51 | 52.69546 | -5.17800 | 39206 ft | 519 kts | 108° |
| 2026-05-09 18:52 | 52.67441 | -5.06412 | 39203 ft | 519 kts | 107° |
| 2026-05-09 18:52 | 52.65362 | -4.95018 | 39194 ft | 520 kts | 107° |
| 2026-05-09 18:53 | 52.63271 | -4.83596 | 39196 ft | 521 kts | 107° |
| 2026-05-09 18:53 | 52.61165 | -4.72174 | 39176 ft | 521 kts | 108° |
| 2026-05-09 18:54 | 52.59046 | -4.60766 | 39179 ft | 522 kts | 108° |
| 2026-05-09 18:54 | 52.56926 | -4.49433 | 39168 ft | 521 kts | 108° |
| 2026-05-09 18:55 | 52.54780 | -4.38024 | 39166 ft | 522 kts | 108° |
| 2026-05-09 18:55 | 52.52624 | -4.26628 | 39167 ft | 522 kts | 108° |
| 2026-05-09 18:56 | 52.50458 | -4.15250 | 39166 ft | 522 kts | 108° |
| 2026-05-09 18:56 | 52.48292 | -4.03943 | 39155 ft | 522 kts | 108° |
| 2026-05-09 18:57 | 52.46102 | -3.92580 | 39164 ft | 522 kts | 108° |
| 2026-05-09 18:57 | 52.43906 | -3.81252 | 39160 ft | 520 kts | 108° |
| 2026-05-09 18:58 | 52.41709 | -3.69981 | 39154 ft | 519 kts | 108° |
| 2026-05-09 18:58 | 52.39500 | -3.58715 | 39152 ft | 519 kts | 109° |
| 2026-05-09 18:59 | 52.37284 | -3.47482 | 39156 ft | 519 kts | 109° |
| 2026-05-09 18:59 | 52.35055 | -3.36251 | 39154 ft | 519 kts | 109° |
| 2026-05-09 19:00 | 52.33189 | -3.26897 | 39147 ft | 519 kts | 109° |
| 2026-05-09 19:00 | 52.29810 | -3.10072 | 39142 ft | 520 kts | 109° |
| 2026-05-09 19:01 | 52.27541 | -2.98854 | 39148 ft | 520 kts | 109° |
| 2026-05-09 19:01 | 52.25261 | -2.87657 | 39144 ft | 519 kts | 110° |
| 2026-05-09 19:02 | 52.22972 | -2.76477 | 39140 ft | 519 kts | 110° |
| 2026-05-09 19:02 | 52.20674 | -2.65304 | 39138 ft | 520 kts | 110° |
| 2026-05-09 19:03 | 52.18365 | -2.54141 | 39134 ft | 520 kts | 110° |
| 2026-05-09 19:03 | 52.16047 | -2.42998 | 39126 ft | 520 kts | 111° |
| 2026-05-09 19:04 | 52.13715 | -2.31851 | 39126 ft | 519 kts | 111° |
| 2026-05-09 19:04 | 52.11390 | -2.20799 | 39127 ft | 520 kts | 111° |
| 2026-05-09 19:05 | 52.09025 | -2.09619 | 39124 ft | 520 kts | 111° |
| 2026-05-09 19:05 | 52.06679 | -1.98587 | 39119 ft | 520 kts | 111° |
| 2026-05-09 19:06 | 52.04310 | -1.87501 | 39110 ft | 519 kts | 111° |
| 2026-05-09 19:06 | 52.01927 | -1.76426 | 39099 ft | 518 kts | 112° |
| 2026-05-09 19:07 | 51.99541 | -1.65399 | 39089 ft | 517 kts | 112° |
| 2026-05-09 19:07 | 51.97147 | -1.54392 | 39091 ft | 517 kts | 112° |
| 2026-05-09 19:08 | 51.94744 | -1.43399 | 39076 ft | 517 kts | 112° |
| 2026-05-09 19:08 | 51.92332 | -1.32428 | 39064 ft | 517 kts | 112° |
| 2026-05-09 19:09 | 51.89910 | -1.21460 | 39064 ft | 517 kts | 112° |
| 2026-05-09 19:09 | 51.87491 | -1.10568 | 39083 ft | 517 kts | 112° |
| 2026-05-09 19:10 | 51.85049 | -0.99629 | 39084 ft | 517 kts | 112° |
| 2026-05-09 19:10 | 51.82598 | -0.88709 | 39084 ft | 517 kts | 112° |
| 2026-05-09 19:11 | 51.80137 | -0.77801 | 39081 ft | 517 kts | 112° |
| 2026-05-09 19:11 | 51.77660 | -0.66878 | 39099 ft | 518 kts | 112° |
| 2026-05-09 19:12 | 51.75189 | -0.56038 | 39096 ft | 518 kts | 112° |
| 2026-05-09 19:12 | 51.72693 | -0.45145 | 39178 ft | 518 kts | 112° |
| 2026-05-09 19:13 | 51.70186 | -0.34259 | 39181 ft | 518 kts | 112° |
| 2026-05-09 19:13 | 51.67670 | -0.23389 | 39181 ft | 517 kts | 112° |
| 2026-05-09 19:14 | 51.65144 | -0.12534 | 39179 ft | 518 kts | 112° |
| 2026-05-09 19:14 | 51.62609 | -0.01691 | 39160 ft | 518 kts | 113° |
| 2026-05-09 19:15 | 51.60061 | 0.09149 | 39101 ft | 518 kts | 113° |
| 2026-05-09 19:15 | 51.57500 | 0.19992 | 39102 ft | 519 kts | 113° |
| 2026-05-09 19:16 | 51.54929 | 0.30824 | 39102 ft | 519 kts | 113° |
| 2026-05-09 19:16 | 51.52345 | 0.41652 | 39101 ft | 519 kts | 113° |
| 2026-05-09 19:17 | 51.49748 | 0.52484 | 39099 ft | 519 kts | 114° |
| 2026-05-09 19:17 | 51.47143 | 0.63293 | 39102 ft | 520 kts | 114° |
| 2026-05-09 19:18 | 51.44524 | 0.74108 | 39101 ft | 520 kts | 114° |
| 2026-05-09 19:18 | 51.41922 | 0.84942 | 39098 ft | 521 kts | 111° |
| 2026-05-09 19:19 | 51.39927 | 0.96116 | 39092 ft | 522 kts | 107° |
| 2026-05-09 19:19 | 51.38180 | 1.07422 | 39103 ft | 524 kts | 106° |
| 2026-05-09 19:20 | 51.36455 | 1.18767 | 39102 ft | 524 kts | 106° |
| 2026-05-09 19:20 | 51.34701 | 1.30079 | 39103 ft | 524 kts | 106° |
| 2026-05-09 19:21 | 51.32919 | 1.41384 | 39094 ft | 524 kts | 106° |
| 2026-05-09 19:21 | 51.31124 | 1.52675 | 39081 ft | 525 kts | 107° |
| 2026-05-09 19:22 | 51.29325 | 1.63907 | 39078 ft | 525 kts | 107° |
| 2026-05-09 19:22 | 51.27503 | 1.75216 | 39075 ft | 525 kts | 107° |
| 2026-05-09 19:23 | 51.25675 | 1.86501 | 39077 ft | 525 kts | 107° |
| 2026-05-09 19:23 | 51.23835 | 1.97780 | 39082 ft | 525 kts | 107° |
| 2026-05-09 19:24 | 51.21991 | 2.09075 | 39081 ft | 526 kts | 107° |
| 2026-05-09 19:24 | 51.20138 | 2.20357 | 39084 ft | 526 kts | 107° |
| 2026-05-09 19:25 | 51.18247 | 2.31614 | 39086 ft | 526 kts | 107° |
| 2026-05-09 19:25 | 51.16350 | 2.42865 | 39081 ft | 526 kts | 107° |
| 2026-05-09 19:26 | 51.14449 | 2.54109 | 39079 ft | 526 kts | 107° |
| 2026-05-09 19:26 | 51.12540 | 2.65342 | 39082 ft | 526 kts | 107° |
| 2026-05-09 19:27 | 51.10628 | 2.76563 | 39079 ft | 526 kts | 108° |
| 2026-05-09 19:27 | 51.08694 | 2.87783 | 39071 ft | 525 kts | 108° |
| 2026-05-09 19:28 | 51.06751 | 2.98986 | 39073 ft | 525 kts | 108° |
| 2026-05-09 19:28 | 51.04797 | 3.10186 | 39071 ft | 525 kts | 108° |
| 2026-05-09 19:29 | 51.02849 | 3.21290 | 39068 ft | 525 kts | 108° |
| 2026-05-09 19:29 | 51.00879 | 3.32448 | 39051 ft | 525 kts | 108° |
| 2026-05-09 19:30 | 50.98897 | 3.43606 | 39053 ft | 525 kts | 108° |
| 2026-05-09 19:30 | 50.96904 | 3.54759 | 39053 ft | 525 kts | 108° |
| 2026-05-09 19:31 | 50.94902 | 3.65890 | 39050 ft | 525 kts | 108° |
| 2026-05-09 19:31 | 50.92888 | 3.77022 | 39047 ft | 525 kts | 108° |
| 2026-05-09 19:32 | 50.90864 | 3.88137 | 39056 ft | 525 kts | 108° |
| 2026-05-09 19:32 | 50.88831 | 3.99238 | 39052 ft | 525 kts | 108° |
| 2026-05-09 19:33 | 50.86783 | 4.10353 | 39051 ft | 525 kts | 109° |
| 2026-05-09 19:33 | 50.84728 | 4.21438 | 39049 ft | 525 kts | 109° |
| 2026-05-09 19:34 | 50.82677 | 4.32431 | 39049 ft | 525 kts | 109° |
| 2026-05-09 19:34 | 50.80599 | 4.43510 | 39048 ft | 525 kts | 109° |
| 2026-05-09 19:35 | 50.78514 | 4.54563 | 39040 ft | 525 kts | 109° |
| 2026-05-09 19:35 | 50.76418 | 4.65613 | 39050 ft | 526 kts | 109° |
| 2026-05-09 19:36 | 50.74306 | 4.76664 | 39052 ft | 525 kts | 110° |
| 2026-05-09 19:36 | 50.72186 | 4.87698 | 39054 ft | 525 kts | 110° |
| 2026-05-09 19:37 | 50.70056 | 4.98729 | 39053 ft | 525 kts | 110° |
| 2026-05-09 19:37 | 50.67915 | 5.09746 | 39054 ft | 525 kts | 110° |
| 2026-05-09 19:38 | 50.65813 | 5.20752 | 39049 ft | 524 kts | 108° |
| 2026-05-09 19:38 | 50.63732 | 5.31719 | 39049 ft | 524 kts | 109° |
| 2026-05-09 19:39 | 50.61575 | 5.42698 | 39055 ft | 523 kts | 109° |
| 2026-05-09 19:39 | 50.59398 | 5.53623 | 39054 ft | 523 kts | 109° |
| 2026-05-09 19:40 | 50.57208 | 5.64554 | 39055 ft | 523 kts | 109° |
| 2026-05-09 19:40 | 50.55033 | 5.75366 | 39053 ft | 522 kts | 109° |
| 2026-05-09 19:41 | 50.52834 | 5.86244 | 39054 ft | 522 kts | 109° |
| 2026-05-09 19:41 | 50.50635 | 5.97082 | 39043 ft | 511 kts | 109° |
| 2026-05-09 19:42 | 50.48487 | 6.07605 | 39038 ft | 508 kts | 110° |
| 2026-05-09 19:42 | 50.46296 | 6.18160 | 39039 ft | 508 kts | 111° |
| 2026-05-09 19:43 | 50.44050 | 6.28679 | 39040 ft | 508 kts | 111° |
| 2026-05-09 19:43 | 50.41829 | 6.39204 | 39034 ft | 508 kts | 111° |
| 2026-05-09 19:44 | 50.39625 | 6.49736 | 39021 ft | 508 kts | 111° |
| 2026-05-09 19:44 | 50.37796 | 6.58467 | 39031 ft | 507 kts | 111° |
| 2026-05-09 19:45 | 50.35588 | 6.68961 | 39037 ft | 506 kts | 111° |
| 2026-05-09 19:45 | 50.33371 | 6.79425 | 39042 ft | 506 kts | 111° |
| 2026-05-09 19:46 | 50.31146 | 6.89878 | 39049 ft | 506 kts | 111° |
| 2026-05-09 19:46 | 50.28913 | 7.00307 | 39050 ft | 503 kts | 111° |
| 2026-05-09 19:47 | 50.26688 | 7.10654 | 39054 ft | 501 kts | 111° |
| 2026-05-09 19:47 | 50.24457 | 7.20975 | 39053 ft | 501 kts | 111° |
| 2026-05-09 19:48 | 50.22230 | 7.31222 | 39051 ft | 501 kts | 111° |
| 2026-05-09 19:48 | 50.19981 | 7.41518 | 39047 ft | 501 kts | 111° |
| 2026-05-09 19:49 | 50.17705 | 7.51886 | 39034 ft | 502 kts | 111° |
| 2026-05-09 19:49 | 50.15447 | 7.62120 | 39044 ft | 502 kts | 111° |
| 2026-05-09 19:50 | 50.13166 | 7.72411 | 39047 ft | 502 kts | 111° |
| 2026-05-09 19:50 | 50.10876 | 7.82696 | 39046 ft | 502 kts | 111° |
| 2026-05-09 19:51 | 50.08570 | 7.92995 | 39043 ft | 504 kts | 112° |
| 2026-05-09 19:51 | 50.06254 | 8.03293 | 39039 ft | 504 kts | 112° |
| 2026-05-09 19:52 | 50.03912 | 8.13657 | 39033 ft | 504 kts | 112° |
| 2026-05-09 19:52 | 50.01592 | 8.23869 | 39033 ft | 504 kts | 112° |
| 2026-05-09 19:53 | 49.99251 | 8.34164 | 39036 ft | 505 kts | 112° |
| 2026-05-09 19:53 | 49.96890 | 8.44447 | 39024 ft | 506 kts | 112° |
| 2026-05-09 19:54 | 49.94231 | 8.54525 | 38859 ft | 503 kts | 121° |
| 2026-05-09 19:54 | 49.92580 | 8.59301 | 38478 ft | 502 kts | 122° |
| 2026-05-09 19:54 | 49.90872 | 8.64027 | 38026 ft | 502 kts | 122° |
| 2026-05-09 19:55 | 49.89136 | 8.68719 | 37599 ft | 502 kts | 123° |
| 2026-05-09 19:55 | 49.87383 | 8.73413 | 37161 ft | 503 kts | 123° |
| 2026-05-09 19:55 | 49.85623 | 8.78124 | 36744 ft | 505 kts | 123° |
| 2026-05-09 19:56 | 49.82079 | 8.87594 | 35893 ft | 511 kts | 123° |
| 2026-05-09 19:56 | 49.80292 | 8.92375 | 35501 ft | 514 kts | 123° |
| 2026-05-09 19:56 | 49.78500 | 8.97171 | 35147 ft | 516 kts | 122° |
| 2026-05-09 19:56 | 49.76696 | 9.01997 | 35033 ft | 518 kts | 122° |
| 2026-05-09 19:57 | 49.74890 | 9.06823 | 35017 ft | 519 kts | 122° |
| 2026-05-09 19:57 | 49.71283 | 9.16439 | 35030 ft | 514 kts | 122° |
| 2026-05-09 19:58 | 49.67695 | 9.25964 | 34690 ft | 513 kts | 122° |
| 2026-05-09 19:58 | 49.65896 | 9.30725 | 34163 ft | 513 kts | 122° |
| 2026-05-09 19:58 | 49.64094 | 9.35484 | 33772 ft | 515 kts | 122° |
| 2026-05-09 19:58 | 49.62213 | 9.40194 | 33371 ft | 515 kts | 127° |
| 2026-05-09 19:59 | 49.60020 | 9.44549 | 32960 ft | 514 kts | 132° |
| 2026-05-09 19:59 | 49.57750 | 9.48704 | 32568 ft | 512 kts | 133° |
| 2026-05-09 19:59 | 49.55411 | 9.52852 | 32179 ft | 512 kts | 134° |
| 2026-05-09 19:59 | 49.53054 | 9.56965 | 31816 ft | 514 kts | 134° |
| 2026-05-09 20:00 | 49.50676 | 9.61089 | 31421 ft | 515 kts | 134° |
| 2026-05-09 20:00 | 49.48293 | 9.65219 | 31052 ft | 517 kts | 134° |
| 2026-05-09 20:00 | 49.45927 | 9.69324 | 30692 ft | 508 kts | 134° |
| 2026-05-09 20:00 | 49.43608 | 9.73357 | 30331 ft | 498 kts | 134° |
| 2026-05-09 20:01 | 49.41336 | 9.77308 | 29928 ft | 489 kts | 133° |
| 2026-05-09 20:01 | 49.39100 | 9.81194 | 29505 ft | 481 kts | 134° |
| 2026-05-09 20:01 | 49.36903 | 9.85010 | 29074 ft | 473 kts | 133° |
| 2026-05-09 20:01 | 49.34741 | 9.88753 | 28649 ft | 465 kts | 134° |
| 2026-05-09 20:02 | 49.32636 | 9.92384 | 28237 ft | 444 kts | 134° |
| 2026-05-09 20:02 | 49.30626 | 9.95849 | 27808 ft | 424 kts | 134° |
| 2026-05-09 20:02 | 49.28705 | 9.99154 | 27413 ft | 407 kts | 134° |
| 2026-05-09 20:03 | 49.25086 | 10.05367 | 26647 ft | 378 kts | 134° |
| 2026-05-09 20:03 | 49.23342 | 10.08351 | 26266 ft | 377 kts | 134° |
| 2026-05-09 20:03 | 49.21605 | 10.11316 | 25896 ft | 370 kts | 134° |
| 2026-05-09 20:03 | 49.19894 | 10.14238 | 25532 ft | 368 kts | 134° |
| 2026-05-09 20:04 | 49.18192 | 10.17150 | 25169 ft | 366 kts | 134° |
| 2026-05-09 20:04 | 49.16499 | 10.20044 | 24814 ft | 364 kts | 134° |
| 2026-05-09 20:04 | 49.14817 | 10.22913 | 24454 ft | 361 kts | 134° |
| 2026-05-09 20:04 | 49.13141 | 10.25753 | 24094 ft | 358 kts | 134° |
| 2026-05-09 20:05 | 49.11438 | 10.28539 | 23774 ft | 359 kts | 135° |
| 2026-05-09 20:05 | 49.09720 | 10.31286 | 23403 ft | 356 kts | 135° |
| 2026-05-09 20:05 | 49.08019 | 10.33986 | 22986 ft | 349 kts | 135° |
| 2026-05-09 20:05 | 49.06332 | 10.36663 | 22582 ft | 350 kts | 135° |
| 2026-05-09 20:06 | 49.04675 | 10.39299 | 22176 ft | 346 kts | 135° |
| 2026-05-09 20:06 | 49.03048 | 10.41899 | 21763 ft | 332 kts | 135° |
| 2026-05-09 20:06 | 49.01482 | 10.44407 | 21384 ft | 321 kts | 135° |
| 2026-05-09 20:06 | 48.99962 | 10.46844 | 21012 ft | 316 kts | 135° |
| 2026-05-09 20:07 | 48.98443 | 10.49276 | 20641 ft | 314 kts | 135° |
| 2026-05-09 20:07 | 48.96945 | 10.51663 | 20258 ft | 312 kts | 135° |
| 2026-05-09 20:07 | 48.95450 | 10.54039 | 19890 ft | 310 kts | 135° |
| 2026-05-09 20:07 | 48.93855 | 10.56223 | 19511 ft | 307 kts | 149° |
| 2026-05-09 20:08 | 48.91952 | 10.57599 | 19129 ft | 302 kts | 162° |
| 2026-05-09 20:08 | 48.87972 | 10.59596 | 18392 ft | 300 kts | 164° |
| 2026-05-09 20:08 | 48.85991 | 10.60545 | 17971 ft | 299 kts | 164° |
| 2026-05-09 20:09 | 48.84007 | 10.61494 | 17547 ft | 299 kts | 164° |
| 2026-05-09 20:09 | 48.82025 | 10.62440 | 17122 ft | 298 kts | 164° |
| 2026-05-09 20:09 | 48.80043 | 10.63388 | 16698 ft | 298 kts | 164° |
| 2026-05-09 20:09 | 48.78069 | 10.64342 | 16291 ft | 298 kts | 164° |
| 2026-05-09 20:10 | 48.76097 | 10.65298 | 15881 ft | 297 kts | 164° |
| 2026-05-09 20:10 | 48.74134 | 10.66246 | 15469 ft | 291 kts | 164° |
| 2026-05-09 20:10 | 48.72178 | 10.66767 | 15072 ft | 283 kts | 180° |
| 2026-05-09 20:10 | 48.70222 | 10.66777 | 14700 ft | 282 kts | 183° |
| 2026-05-09 20:11 | 48.68280 | 10.66696 | 14317 ft | 282 kts | 184° |
| 2026-05-09 20:11 | 48.66293 | 10.66605 | 13923 ft | 282 kts | 184° |
| 2026-05-09 20:11 | 48.64363 | 10.66516 | 13494 ft | 279 kts | 184° |
| 2026-05-09 20:11 | 48.62446 | 10.66426 | 13140 ft | 274 kts | 184° |
| 2026-05-09 20:12 | 48.60538 | 10.66333 | 13053 ft | 274 kts | 184° |
| 2026-05-09 20:12 | 48.58636 | 10.66239 | 13044 ft | 273 kts | 184° |
| 2026-05-09 20:12 | 48.56748 | 10.66147 | 13035 ft | 271 kts | 184° |
| 2026-05-09 20:12 | 48.54866 | 10.66058 | 13040 ft | 270 kts | 184° |
| 2026-05-09 20:13 | 48.52987 | 10.65969 | 13043 ft | 270 kts | 184° |
| 2026-05-09 20:13 | 48.51106 | 10.65879 | 13048 ft | 270 kts | 184° |
| 2026-05-09 20:13 | 48.49225 | 10.65863 | 13044 ft | 272 kts | 177° |
| 2026-05-09 20:13 | 48.47439 | 10.66765 | 13043 ft | 275 kts | 148° |
| 2026-05-09 20:14 | 48.46107 | 10.68800 | 13048 ft | 277 kts | 121° |
| 2026-05-09 20:14 | 48.45521 | 10.71541 | 13044 ft | 277 kts | 94° |
| 2026-05-09 20:14 | 48.45712 | 10.74416 | 13047 ft | 277 kts | 77° |
| 2026-05-09 20:14 | 48.46178 | 10.77245 | 13046 ft | 279 kts | 74° |
| 2026-05-09 20:15 | 48.46684 | 10.80069 | 13053 ft | 279 kts | 74° |
| 2026-05-09 20:15 | 48.47241 | 10.82866 | 13041 ft | 279 kts | 66° |
| 2026-05-09 20:15 | 48.48346 | 10.85210 | 13050 ft | 274 kts | 38° |
| 2026-05-09 20:15 | 48.49929 | 10.86774 | 13008 ft | 273 kts | 26° |
| 2026-05-09 20:16 | 48.51616 | 10.88086 | 12753 ft | 272 kts | 24° |
| 2026-05-09 20:16 | 48.53315 | 10.89354 | 12498 ft | 272 kts | 24° |
| 2026-05-09 20:16 | 48.54959 | 10.90758 | 12223 ft | 273 kts | 37° |
| 2026-05-09 20:16 | 48.56122 | 10.92990 | 12059 ft | 273 kts | 66° |
| 2026-05-09 20:17 | 48.56468 | 10.95783 | 12023 ft | 274 kts | 93° |
| 2026-05-09 20:17 | 48.55976 | 10.98526 | 11786 ft | 271 kts | 117° |
| 2026-05-09 20:17 | 48.55033 | 11.00983 | 11507 ft | 270 kts | 123° |
| 2026-05-09 20:17 | 48.54031 | 11.03340 | 11232 ft | 270 kts | 124° |
| 2026-05-09 20:18 | 48.52999 | 11.05740 | 10961 ft | 268 kts | 124° |
| 2026-05-09 20:18 | 48.52047 | 11.08111 | 10670 ft | 267 kts | 116° |
| 2026-05-09 20:18 | 48.51672 | 11.10825 | 10431 ft | 266 kts | 90° |
| 2026-05-09 20:18 | 48.51772 | 11.13607 | 10164 ft | 265 kts | 85° |
| 2026-05-09 20:19 | 48.51959 | 11.16360 | 10057 ft | 264 kts | 84° |
| 2026-05-09 20:19 | 48.52158 | 11.19120 | 10036 ft | 265 kts | 84° |
| 2026-05-09 20:19 | 48.52359 | 11.21883 | 10044 ft | 264 kts | 84° |
| 2026-05-09 20:19 | 48.52558 | 11.24637 | 10044 ft | 264 kts | 84° |
| 2026-05-09 20:20 | 48.52756 | 11.27395 | 10037 ft | 264 kts | 84° |
| 2026-05-09 20:20 | 48.52951 | 11.30146 | 10039 ft | 264 kts | 84° |
| 2026-05-09 20:20 | 48.53142 | 11.32899 | 10041 ft | 264 kts | 84° |
| 2026-05-09 20:20 | 48.53331 | 11.35646 | 10042 ft | 264 kts | 84° |
| 2026-05-09 20:21 | 48.53520 | 11.38401 | 10043 ft | 264 kts | 84° |